<?xml version="1.0" encoding="UTF-8" standalone="no" ?>
<gpx xmlns="http://www.topografix.com/GPX/1/1" xmlns:xsi="http://www.w3.org/2001/XMLSchema-instance" xsi:schemaLocation="http://www.topografix.com/GPX/1/1 http://www.topografix.com/GPX/1/1/gpx.xsd" version="1.1" creator="VisuGPX - https://www.visugpx.com">
  <metadata>
    <name>Montagne de l'Aup depuis le station de Valdrôme</name>
    <desc><![CDATA[Rando CAF Valence du 19 mai 2022 organisée par Denis.]]></desc>
  </metadata>
  <trk>
    <name><![CDATA[2022-05-19 15:55:24]]></name>
    <trkseg>
      <trkpt lat="44.48234" lon="5.60448">
        <ele>1320.99</ele>
        <time>2022-05-19T07:15:05Z</time>
      </trkpt>
      <trkpt lat="44.4823" lon="5.60451">
        <ele>1320.51</ele>
        <time>2022-05-19T07:15:19Z</time>
      </trkpt>
      <trkpt lat="44.48229" lon="5.6045">
        <ele>1321.95</ele>
        <time>2022-05-19T07:15:27Z</time>
      </trkpt>
      <trkpt lat="44.48227" lon="5.60452">
        <ele>1321.95</ele>
        <time>2022-05-19T07:15:41Z</time>
      </trkpt>
      <trkpt lat="44.4822" lon="5.60451">
        <ele>1321.47</ele>
        <time>2022-05-19T07:15:52Z</time>
      </trkpt>
      <trkpt lat="44.48215" lon="5.60446">
        <ele>1322.43</ele>
        <time>2022-05-19T07:16:27Z</time>
      </trkpt>
      <trkpt lat="44.48214" lon="5.60447">
        <ele>1322.43</ele>
        <time>2022-05-19T07:16:45Z</time>
      </trkpt>
      <trkpt lat="44.48211" lon="5.60442">
        <ele>1323.87</ele>
        <time>2022-05-19T07:17:00Z</time>
      </trkpt>
      <trkpt lat="44.48209" lon="5.60439">
        <ele>1323.87</ele>
        <time>2022-05-19T07:17:21Z</time>
      </trkpt>
      <trkpt lat="44.48203" lon="5.60432">
        <ele>1323.87</ele>
        <time>2022-05-19T07:17:37Z</time>
      </trkpt>
      <trkpt lat="44.48196" lon="5.60423">
        <ele>1325.8</ele>
        <time>2022-05-19T07:17:51Z</time>
      </trkpt>
      <trkpt lat="44.48189" lon="5.60411">
        <ele>1326.76</ele>
        <time>2022-05-19T07:18:06Z</time>
      </trkpt>
      <trkpt lat="44.48182" lon="5.60394">
        <ele>1327.72</ele>
        <time>2022-05-19T07:18:20Z</time>
      </trkpt>
      <trkpt lat="44.48174" lon="5.60383">
        <ele>1329.64</ele>
        <time>2022-05-19T07:18:34Z</time>
      </trkpt>
      <trkpt lat="44.48167" lon="5.60375">
        <ele>1330.6</ele>
        <time>2022-05-19T07:18:43Z</time>
      </trkpt>
      <trkpt lat="44.4816" lon="5.60354">
        <ele>1331.56</ele>
        <time>2022-05-19T07:18:58Z</time>
      </trkpt>
      <trkpt lat="44.48149" lon="5.60339">
        <ele>1332.52</ele>
        <time>2022-05-19T07:19:14Z</time>
      </trkpt>
      <trkpt lat="44.48138" lon="5.60319">
        <ele>1333.49</ele>
        <time>2022-05-19T07:19:32Z</time>
      </trkpt>
      <trkpt lat="44.48128" lon="5.60303">
        <ele>1334.93</ele>
        <time>2022-05-19T07:19:49Z</time>
      </trkpt>
      <trkpt lat="44.48119" lon="5.60289">
        <ele>1336.37</ele>
        <time>2022-05-19T07:20:03Z</time>
      </trkpt>
      <trkpt lat="44.48113" lon="5.60275">
        <ele>1338.29</ele>
        <time>2022-05-19T07:20:18Z</time>
      </trkpt>
      <trkpt lat="44.48106" lon="5.60262">
        <ele>1338.29</ele>
        <time>2022-05-19T07:20:31Z</time>
      </trkpt>
      <trkpt lat="44.48092" lon="5.60248">
        <ele>1338.77</ele>
        <time>2022-05-19T07:20:48Z</time>
      </trkpt>
      <trkpt lat="44.48084" lon="5.60242">
        <ele>1338.77</ele>
        <time>2022-05-19T07:20:56Z</time>
      </trkpt>
      <trkpt lat="44.48072" lon="5.60229">
        <ele>1339.25</ele>
        <time>2022-05-19T07:21:10Z</time>
      </trkpt>
      <trkpt lat="44.48059" lon="5.60216">
        <ele>1339.73</ele>
        <time>2022-05-19T07:21:26Z</time>
      </trkpt>
      <trkpt lat="44.48046" lon="5.60205">
        <ele>1340.7</ele>
        <time>2022-05-19T07:21:41Z</time>
      </trkpt>
      <trkpt lat="44.48033" lon="5.60197">
        <ele>1342.14</ele>
        <time>2022-05-19T07:21:56Z</time>
      </trkpt>
      <trkpt lat="44.48021" lon="5.60194">
        <ele>1343.58</ele>
        <time>2022-05-19T07:22:11Z</time>
      </trkpt>
      <trkpt lat="44.48012" lon="5.60193">
        <ele>1343.58</ele>
        <time>2022-05-19T07:22:18Z</time>
      </trkpt>
      <trkpt lat="44.47999" lon="5.60191">
        <ele>1345.02</ele>
        <time>2022-05-19T07:22:34Z</time>
      </trkpt>
      <trkpt lat="44.47986" lon="5.60184">
        <ele>1346.46</ele>
        <time>2022-05-19T07:22:48Z</time>
      </trkpt>
      <trkpt lat="44.47977" lon="5.60182">
        <ele>1347.43</ele>
        <time>2022-05-19T07:23:02Z</time>
      </trkpt>
      <trkpt lat="44.4797" lon="5.60175">
        <ele>1347.43</ele>
        <time>2022-05-19T07:23:16Z</time>
      </trkpt>
      <trkpt lat="44.47956" lon="5.60172">
        <ele>1348.87</ele>
        <time>2022-05-19T07:23:32Z</time>
      </trkpt>
      <trkpt lat="44.47941" lon="5.60169">
        <ele>1349.83</ele>
        <time>2022-05-19T07:23:48Z</time>
      </trkpt>
      <trkpt lat="44.47925" lon="5.60163">
        <ele>1351.27</ele>
        <time>2022-05-19T07:24:06Z</time>
      </trkpt>
      <trkpt lat="44.47912" lon="5.60159">
        <ele>1353.19</ele>
        <time>2022-05-19T07:24:21Z</time>
      </trkpt>
      <trkpt lat="44.47898" lon="5.60156">
        <ele>1355.12</ele>
        <time>2022-05-19T07:24:36Z</time>
      </trkpt>
      <trkpt lat="44.47888" lon="5.60157">
        <ele>1356.56</ele>
        <time>2022-05-19T07:24:49Z</time>
      </trkpt>
      <trkpt lat="44.47873" lon="5.60161">
        <ele>1358.48</ele>
        <time>2022-05-19T07:25:06Z</time>
      </trkpt>
      <trkpt lat="44.47861" lon="5.60159">
        <ele>1360.88</ele>
        <time>2022-05-19T07:25:21Z</time>
      </trkpt>
      <trkpt lat="44.47854" lon="5.60154">
        <ele>1360.88</ele>
        <time>2022-05-19T07:25:36Z</time>
      </trkpt>
      <trkpt lat="44.4785" lon="5.60152">
        <ele>1361.84</ele>
        <time>2022-05-19T07:25:50Z</time>
      </trkpt>
      <trkpt lat="44.47843" lon="5.6015">
        <ele>1362.33</ele>
        <time>2022-05-19T07:26:04Z</time>
      </trkpt>
      <trkpt lat="44.47831" lon="5.60144">
        <ele>1363.77</ele>
        <time>2022-05-19T07:26:20Z</time>
      </trkpt>
      <trkpt lat="44.47819" lon="5.60139">
        <ele>1365.21</ele>
        <time>2022-05-19T07:26:36Z</time>
      </trkpt>
      <trkpt lat="44.47806" lon="5.60136">
        <ele>1367.61</ele>
        <time>2022-05-19T07:26:52Z</time>
      </trkpt>
      <trkpt lat="44.47792" lon="5.60132">
        <ele>1369.05</ele>
        <time>2022-05-19T07:27:09Z</time>
      </trkpt>
      <trkpt lat="44.4778" lon="5.60128">
        <ele>1370.5</ele>
        <time>2022-05-19T07:27:23Z</time>
      </trkpt>
      <trkpt lat="44.47767" lon="5.60126">
        <ele>1372.42</ele>
        <time>2022-05-19T07:27:40Z</time>
      </trkpt>
      <trkpt lat="44.47752" lon="5.60122">
        <ele>1374.34</ele>
        <time>2022-05-19T07:27:57Z</time>
      </trkpt>
      <trkpt lat="44.47739" lon="5.60114">
        <ele>1374.82</ele>
        <time>2022-05-19T07:28:14Z</time>
      </trkpt>
      <trkpt lat="44.47727" lon="5.6011">
        <ele>1376.26</ele>
        <time>2022-05-19T07:28:30Z</time>
      </trkpt>
      <trkpt lat="44.47716" lon="5.60106">
        <ele>1377.23</ele>
        <time>2022-05-19T07:28:45Z</time>
      </trkpt>
      <trkpt lat="44.47705" lon="5.60104">
        <ele>1379.15</ele>
        <time>2022-05-19T07:28:59Z</time>
      </trkpt>
      <trkpt lat="44.47694" lon="5.60103">
        <ele>1381.07</ele>
        <time>2022-05-19T07:29:17Z</time>
      </trkpt>
      <trkpt lat="44.47681" lon="5.601">
        <ele>1382.99</ele>
        <time>2022-05-19T07:29:34Z</time>
      </trkpt>
      <trkpt lat="44.47671" lon="5.60094">
        <ele>1383.96</ele>
        <time>2022-05-19T07:29:49Z</time>
      </trkpt>
      <trkpt lat="44.47659" lon="5.60089">
        <ele>1384.92</ele>
        <time>2022-05-19T07:30:04Z</time>
      </trkpt>
      <trkpt lat="44.4765" lon="5.60085">
        <ele>1385.88</ele>
        <time>2022-05-19T07:30:17Z</time>
      </trkpt>
      <trkpt lat="44.47639" lon="5.60078">
        <ele>1386.36</ele>
        <time>2022-05-19T07:30:33Z</time>
      </trkpt>
      <trkpt lat="44.47625" lon="5.60072">
        <ele>1388.28</ele>
        <time>2022-05-19T07:30:51Z</time>
      </trkpt>
      <trkpt lat="44.47613" lon="5.60066">
        <ele>1389.72</ele>
        <time>2022-05-19T07:31:09Z</time>
      </trkpt>
      <trkpt lat="44.47602" lon="5.60064">
        <ele>1390.68</ele>
        <time>2022-05-19T07:31:25Z</time>
      </trkpt>
      <trkpt lat="44.4759" lon="5.60058">
        <ele>1393.09</ele>
        <time>2022-05-19T07:31:41Z</time>
      </trkpt>
      <trkpt lat="44.4758" lon="5.60048">
        <ele>1395.01</ele>
        <time>2022-05-19T07:31:59Z</time>
      </trkpt>
      <trkpt lat="44.47573" lon="5.60036">
        <ele>1395.01</ele>
        <time>2022-05-19T07:32:15Z</time>
      </trkpt>
      <trkpt lat="44.47566" lon="5.60024">
        <ele>1395.01</ele>
        <time>2022-05-19T07:32:31Z</time>
      </trkpt>
      <trkpt lat="44.47553" lon="5.60012">
        <ele>1395.01</ele>
        <time>2022-05-19T07:32:48Z</time>
      </trkpt>
      <trkpt lat="44.47549" lon="5.6001">
        <ele>1393.57</ele>
        <time>2022-05-19T07:32:52Z</time>
      </trkpt>
      <trkpt lat="44.47535" lon="5.60011">
        <ele>1393.09</ele>
        <time>2022-05-19T07:33:07Z</time>
      </trkpt>
      <trkpt lat="44.47523" lon="5.60014">
        <ele>1393.09</ele>
        <time>2022-05-19T07:33:22Z</time>
      </trkpt>
      <trkpt lat="44.47508" lon="5.6002">
        <ele>1393.09</ele>
        <time>2022-05-19T07:33:39Z</time>
      </trkpt>
      <trkpt lat="44.47493" lon="5.60029">
        <ele>1393.09</ele>
        <time>2022-05-19T07:33:56Z</time>
      </trkpt>
      <trkpt lat="44.47483" lon="5.60037">
        <ele>1394.05</ele>
        <time>2022-05-19T07:34:09Z</time>
      </trkpt>
      <trkpt lat="44.47471" lon="5.60044">
        <ele>1395.01</ele>
        <time>2022-05-19T07:34:24Z</time>
      </trkpt>
      <trkpt lat="44.47459" lon="5.60053">
        <ele>1396.45</ele>
        <time>2022-05-19T07:34:40Z</time>
      </trkpt>
      <trkpt lat="44.47447" lon="5.60061">
        <ele>1397.89</ele>
        <time>2022-05-19T07:34:56Z</time>
      </trkpt>
      <trkpt lat="44.47435" lon="5.60063">
        <ele>1398.86</ele>
        <time>2022-05-19T07:35:12Z</time>
      </trkpt>
      <trkpt lat="44.47419" lon="5.60066">
        <ele>1400.3</ele>
        <time>2022-05-19T07:35:28Z</time>
      </trkpt>
      <trkpt lat="44.47407" lon="5.60065">
        <ele>1400.78</ele>
        <time>2022-05-19T07:35:41Z</time>
      </trkpt>
      <trkpt lat="44.47396" lon="5.60066">
        <ele>1401.74</ele>
        <time>2022-05-19T07:35:54Z</time>
      </trkpt>
      <trkpt lat="44.47385" lon="5.60063">
        <ele>1401.74</ele>
        <time>2022-05-19T07:36:06Z</time>
      </trkpt>
      <trkpt lat="44.47371" lon="5.60059">
        <ele>1402.7</ele>
        <time>2022-05-19T07:36:22Z</time>
      </trkpt>
      <trkpt lat="44.47359" lon="5.60058">
        <ele>1404.62</ele>
        <time>2022-05-19T07:36:40Z</time>
      </trkpt>
      <trkpt lat="44.47346" lon="5.60061">
        <ele>1406.07</ele>
        <time>2022-05-19T07:36:57Z</time>
      </trkpt>
      <trkpt lat="44.47333" lon="5.60066">
        <ele>1406.55</ele>
        <time>2022-05-19T07:37:12Z</time>
      </trkpt>
      <trkpt lat="44.47329" lon="5.60066">
        <ele>1407.03</ele>
        <time>2022-05-19T07:37:16Z</time>
      </trkpt>
      <trkpt lat="44.47315" lon="5.60063">
        <ele>1407.51</ele>
        <time>2022-05-19T07:37:32Z</time>
      </trkpt>
      <trkpt lat="44.47302" lon="5.60049">
        <ele>1408.47</ele>
        <time>2022-05-19T07:37:48Z</time>
      </trkpt>
      <trkpt lat="44.47292" lon="5.60037">
        <ele>1408.47</ele>
        <time>2022-05-19T07:38:01Z</time>
      </trkpt>
      <trkpt lat="44.47277" lon="5.60027">
        <ele>1409.43</ele>
        <time>2022-05-19T07:38:18Z</time>
      </trkpt>
      <trkpt lat="44.47263" lon="5.60023">
        <ele>1410.39</ele>
        <time>2022-05-19T07:38:33Z</time>
      </trkpt>
      <trkpt lat="44.4725" lon="5.60022">
        <ele>1411.35</ele>
        <time>2022-05-19T07:38:48Z</time>
      </trkpt>
      <trkpt lat="44.47237" lon="5.6002">
        <ele>1412.31</ele>
        <time>2022-05-19T07:39:01Z</time>
      </trkpt>
      <trkpt lat="44.47235" lon="5.6002">
        <ele>1412.31</ele>
        <time>2022-05-19T07:39:03Z</time>
      </trkpt>
      <trkpt lat="44.47221" lon="5.60016">
        <ele>1413.76</ele>
        <time>2022-05-19T07:39:17Z</time>
      </trkpt>
      <trkpt lat="44.47206" lon="5.60014">
        <ele>1416.16</ele>
        <time>2022-05-19T07:39:34Z</time>
      </trkpt>
      <trkpt lat="44.47195" lon="5.60006">
        <ele>1418.08</ele>
        <time>2022-05-19T07:39:49Z</time>
      </trkpt>
      <trkpt lat="44.47184" lon="5.6">
        <ele>1419.52</ele>
        <time>2022-05-19T07:40:03Z</time>
      </trkpt>
      <trkpt lat="44.47169" lon="5.59992">
        <ele>1420.49</ele>
        <time>2022-05-19T07:40:20Z</time>
      </trkpt>
      <trkpt lat="44.47156" lon="5.59988">
        <ele>1420.49</ele>
        <time>2022-05-19T07:40:35Z</time>
      </trkpt>
      <trkpt lat="44.47149" lon="5.5998">
        <ele>1420.49</ele>
        <time>2022-05-19T07:40:51Z</time>
      </trkpt>
      <trkpt lat="44.47148" lon="5.59971">
        <ele>1420.97</ele>
        <time>2022-05-19T07:41:10Z</time>
      </trkpt>
      <trkpt lat="44.47148" lon="5.59968">
        <ele>1420.97</ele>
        <time>2022-05-19T07:41:33Z</time>
      </trkpt>
      <trkpt lat="44.47152" lon="5.59958">
        <ele>1418.56</ele>
        <time>2022-05-19T07:44:15Z</time>
      </trkpt>
      <trkpt lat="44.47157" lon="5.59948">
        <ele>1417.12</ele>
        <time>2022-05-19T07:44:28Z</time>
      </trkpt>
      <trkpt lat="44.47164" lon="5.59932">
        <ele>1416.64</ele>
        <time>2022-05-19T07:44:44Z</time>
      </trkpt>
      <trkpt lat="44.47173" lon="5.59917">
        <ele>1418.56</ele>
        <time>2022-05-19T07:45:00Z</time>
      </trkpt>
      <trkpt lat="44.47183" lon="5.59905">
        <ele>1418.56</ele>
        <time>2022-05-19T07:45:14Z</time>
      </trkpt>
      <trkpt lat="44.47197" lon="5.59887">
        <ele>1419.52</ele>
        <time>2022-05-19T07:45:31Z</time>
      </trkpt>
      <trkpt lat="44.4721" lon="5.5987">
        <ele>1419.52</ele>
        <time>2022-05-19T07:45:48Z</time>
      </trkpt>
      <trkpt lat="44.47218" lon="5.59854">
        <ele>1420</ele>
        <time>2022-05-19T07:46:02Z</time>
      </trkpt>
      <trkpt lat="44.4722" lon="5.59846">
        <ele>1420</ele>
        <time>2022-05-19T07:46:08Z</time>
      </trkpt>
      <trkpt lat="44.47215" lon="5.59819">
        <ele>1418.56</ele>
        <time>2022-05-19T07:46:27Z</time>
      </trkpt>
      <trkpt lat="44.47209" lon="5.59797">
        <ele>1418.56</ele>
        <time>2022-05-19T07:46:45Z</time>
      </trkpt>
      <trkpt lat="44.47204" lon="5.59783">
        <ele>1420</ele>
        <time>2022-05-19T07:46:59Z</time>
      </trkpt>
      <trkpt lat="44.472" lon="5.59766">
        <ele>1421.45</ele>
        <time>2022-05-19T07:47:15Z</time>
      </trkpt>
      <trkpt lat="44.47202" lon="5.5975">
        <ele>1421.93</ele>
        <time>2022-05-19T07:47:30Z</time>
      </trkpt>
      <trkpt lat="44.47208" lon="5.59742">
        <ele>1422.41</ele>
        <time>2022-05-19T07:47:38Z</time>
      </trkpt>
      <trkpt lat="44.47226" lon="5.59734">
        <ele>1423.37</ele>
        <time>2022-05-19T07:47:56Z</time>
      </trkpt>
      <trkpt lat="44.47241" lon="5.59731">
        <ele>1423.37</ele>
        <time>2022-05-19T07:48:12Z</time>
      </trkpt>
      <trkpt lat="44.47254" lon="5.5973">
        <ele>1423.37</ele>
        <time>2022-05-19T07:48:27Z</time>
      </trkpt>
      <trkpt lat="44.47268" lon="5.59728">
        <ele>1424.81</ele>
        <time>2022-05-19T07:48:42Z</time>
      </trkpt>
      <trkpt lat="44.47282" lon="5.59728">
        <ele>1426.25</ele>
        <time>2022-05-19T07:48:58Z</time>
      </trkpt>
      <trkpt lat="44.47291" lon="5.5972">
        <ele>1426.73</ele>
        <time>2022-05-19T07:49:10Z</time>
      </trkpt>
      <trkpt lat="44.47295" lon="5.59702">
        <ele>1427.7</ele>
        <time>2022-05-19T07:49:27Z</time>
      </trkpt>
      <trkpt lat="44.47295" lon="5.59686">
        <ele>1429.14</ele>
        <time>2022-05-19T07:49:40Z</time>
      </trkpt>
      <trkpt lat="44.47292" lon="5.59669">
        <ele>1430.58</ele>
        <time>2022-05-19T07:49:55Z</time>
      </trkpt>
      <trkpt lat="44.47289" lon="5.59654">
        <ele>1431.54</ele>
        <time>2022-05-19T07:50:09Z</time>
      </trkpt>
      <trkpt lat="44.47292" lon="5.59636">
        <ele>1432.02</ele>
        <time>2022-05-19T07:53:22Z</time>
      </trkpt>
      <trkpt lat="44.47302" lon="5.59613">
        <ele>1433.46</ele>
        <time>2022-05-19T07:53:38Z</time>
      </trkpt>
      <trkpt lat="44.47301" lon="5.59606">
        <ele>1433.94</ele>
        <time>2022-05-19T07:53:50Z</time>
      </trkpt>
      <trkpt lat="44.47301" lon="5.59604">
        <ele>1433.46</ele>
        <time>2022-05-19T07:56:22Z</time>
      </trkpt>
      <trkpt lat="44.47304" lon="5.59597">
        <ele>1433.46</ele>
        <time>2022-05-19T07:56:29Z</time>
      </trkpt>
      <trkpt lat="44.47305" lon="5.59573">
        <ele>1435.39</ele>
        <time>2022-05-19T07:56:47Z</time>
      </trkpt>
      <trkpt lat="44.47295" lon="5.5955">
        <ele>1438.27</ele>
        <time>2022-05-19T07:57:04Z</time>
      </trkpt>
      <trkpt lat="44.47282" lon="5.59534">
        <ele>1441.15</ele>
        <time>2022-05-19T07:57:19Z</time>
      </trkpt>
      <trkpt lat="44.47268" lon="5.59519">
        <ele>1442.11</ele>
        <time>2022-05-19T07:57:35Z</time>
      </trkpt>
      <trkpt lat="44.47266" lon="5.59516">
        <ele>1444.04</ele>
        <time>2022-05-19T07:57:38Z</time>
      </trkpt>
      <trkpt lat="44.47254" lon="5.59509">
        <ele>1444.52</ele>
        <time>2022-05-19T07:57:50Z</time>
      </trkpt>
      <trkpt lat="44.47253" lon="5.59509">
        <ele>1444.52</ele>
        <time>2022-05-19T07:57:51Z</time>
      </trkpt>
      <trkpt lat="44.47245" lon="5.59504">
        <ele>1444.52</ele>
        <time>2022-05-19T07:58:08Z</time>
      </trkpt>
      <trkpt lat="44.47245" lon="5.59501">
        <ele>1444.52</ele>
        <time>2022-05-19T07:58:24Z</time>
      </trkpt>
      <trkpt lat="44.47242" lon="5.59491">
        <ele>1443.56</ele>
        <time>2022-05-19T07:58:35Z</time>
      </trkpt>
      <trkpt lat="44.47243" lon="5.59476">
        <ele>1443.08</ele>
        <time>2022-05-19T07:58:50Z</time>
      </trkpt>
      <trkpt lat="44.4725" lon="5.59455">
        <ele>1441.15</ele>
        <time>2022-05-19T07:59:08Z</time>
      </trkpt>
      <trkpt lat="44.47252" lon="5.5944">
        <ele>1440.19</ele>
        <time>2022-05-19T07:59:22Z</time>
      </trkpt>
      <trkpt lat="44.47259" lon="5.59415">
        <ele>1438.75</ele>
        <time>2022-05-19T07:59:39Z</time>
      </trkpt>
      <trkpt lat="44.47261" lon="5.59409">
        <ele>1438.27</ele>
        <time>2022-05-19T07:59:44Z</time>
      </trkpt>
      <trkpt lat="44.47265" lon="5.59386">
        <ele>1437.79</ele>
        <time>2022-05-19T07:59:59Z</time>
      </trkpt>
      <trkpt lat="44.47271" lon="5.59365">
        <ele>1436.35</ele>
        <time>2022-05-19T08:00:15Z</time>
      </trkpt>
      <trkpt lat="44.47275" lon="5.59357">
        <ele>1436.35</ele>
        <time>2022-05-19T08:00:20Z</time>
      </trkpt>
      <trkpt lat="44.47281" lon="5.59349">
        <ele>1433.46</ele>
        <time>2022-05-19T08:00:27Z</time>
      </trkpt>
      <trkpt lat="44.47284" lon="5.59344">
        <ele>1436.83</ele>
        <time>2022-05-19T08:00:31Z</time>
      </trkpt>
      <trkpt lat="44.47285" lon="5.59341">
        <ele>1437.31</ele>
        <time>2022-05-19T08:00:33Z</time>
      </trkpt>
      <trkpt lat="44.47292" lon="5.59317">
        <ele>1434.42</ele>
        <time>2022-05-19T08:00:50Z</time>
      </trkpt>
      <trkpt lat="44.47293" lon="5.59293">
        <ele>1433.94</ele>
        <time>2022-05-19T08:01:06Z</time>
      </trkpt>
      <trkpt lat="44.47293" lon="5.5927">
        <ele>1433.46</ele>
        <time>2022-05-19T08:01:20Z</time>
      </trkpt>
      <trkpt lat="44.47292" lon="5.59255">
        <ele>1432.5</ele>
        <time>2022-05-19T08:01:33Z</time>
      </trkpt>
      <trkpt lat="44.47289" lon="5.5923">
        <ele>1431.54</ele>
        <time>2022-05-19T08:01:49Z</time>
      </trkpt>
      <trkpt lat="44.47287" lon="5.59207">
        <ele>1431.06</ele>
        <time>2022-05-19T08:02:04Z</time>
      </trkpt>
      <trkpt lat="44.47286" lon="5.59185">
        <ele>1430.58</ele>
        <time>2022-05-19T08:02:18Z</time>
      </trkpt>
      <trkpt lat="44.47289" lon="5.59162">
        <ele>1429.62</ele>
        <time>2022-05-19T08:02:30Z</time>
      </trkpt>
      <trkpt lat="44.47289" lon="5.59134">
        <ele>1428.66</ele>
        <time>2022-05-19T08:02:47Z</time>
      </trkpt>
      <trkpt lat="44.4729" lon="5.59101">
        <ele>1427.21</ele>
        <time>2022-05-19T08:03:06Z</time>
      </trkpt>
      <trkpt lat="44.4729" lon="5.591">
        <ele>1427.21</ele>
        <time>2022-05-19T08:03:07Z</time>
      </trkpt>
      <trkpt lat="44.47294" lon="5.59069">
        <ele>1426.73</ele>
        <time>2022-05-19T08:03:24Z</time>
      </trkpt>
      <trkpt lat="44.47296" lon="5.59048">
        <ele>1428.18</ele>
        <time>2022-05-19T08:03:36Z</time>
      </trkpt>
      <trkpt lat="44.47296" lon="5.59047">
        <ele>1428.18</ele>
        <time>2022-05-19T08:03:37Z</time>
      </trkpt>
      <trkpt lat="44.47302" lon="5.5902">
        <ele>1426.73</ele>
        <time>2022-05-19T08:03:53Z</time>
      </trkpt>
      <trkpt lat="44.47307" lon="5.58999">
        <ele>1424.33</ele>
        <time>2022-05-19T08:04:11Z</time>
      </trkpt>
      <trkpt lat="44.47311" lon="5.58986">
        <ele>1424.33</ele>
        <time>2022-05-19T08:04:27Z</time>
      </trkpt>
      <trkpt lat="44.47315" lon="5.58961">
        <ele>1423.37</ele>
        <time>2022-05-19T08:04:44Z</time>
      </trkpt>
      <trkpt lat="44.47324" lon="5.58934">
        <ele>1422.41</ele>
        <time>2022-05-19T08:05:02Z</time>
      </trkpt>
      <trkpt lat="44.47331" lon="5.58899">
        <ele>1420.97</ele>
        <time>2022-05-19T08:05:22Z</time>
      </trkpt>
      <trkpt lat="44.47337" lon="5.58873">
        <ele>1422.41</ele>
        <time>2022-05-19T08:05:38Z</time>
      </trkpt>
      <trkpt lat="44.47342" lon="5.58848">
        <ele>1419.04</ele>
        <time>2022-05-19T08:05:54Z</time>
      </trkpt>
      <trkpt lat="44.47346" lon="5.58831">
        <ele>1418.08</ele>
        <time>2022-05-19T08:06:13Z</time>
      </trkpt>
      <trkpt lat="44.47346" lon="5.5883">
        <ele>1418.56</ele>
        <time>2022-05-19T08:06:18Z</time>
      </trkpt>
      <trkpt lat="44.47346" lon="5.5883">
        <ele>1417.6</ele>
        <time>2022-05-19T08:06:27Z</time>
      </trkpt>
      <trkpt lat="44.47347" lon="5.5883">
        <ele>1419.04</ele>
        <time>2022-05-19T08:06:32Z</time>
      </trkpt>
      <trkpt lat="44.47348" lon="5.58826">
        <ele>1419.04</ele>
        <time>2022-05-19T08:06:48Z</time>
      </trkpt>
      <trkpt lat="44.4735" lon="5.58825">
        <ele>1419.04</ele>
        <time>2022-05-19T08:07:04Z</time>
      </trkpt>
      <trkpt lat="44.4735" lon="5.5882">
        <ele>1419.04</ele>
        <time>2022-05-19T08:07:22Z</time>
      </trkpt>
      <trkpt lat="44.47352" lon="5.58803">
        <ele>1417.6</ele>
        <time>2022-05-19T08:07:36Z</time>
      </trkpt>
      <trkpt lat="44.47356" lon="5.58783">
        <ele>1417.12</ele>
        <time>2022-05-19T08:07:53Z</time>
      </trkpt>
      <trkpt lat="44.47358" lon="5.58763">
        <ele>1417.6</ele>
        <time>2022-05-19T08:08:10Z</time>
      </trkpt>
      <trkpt lat="44.47358" lon="5.5875">
        <ele>1417.12</ele>
        <time>2022-05-19T08:08:28Z</time>
      </trkpt>
      <trkpt lat="44.47361" lon="5.58735">
        <ele>1416.16</ele>
        <time>2022-05-19T08:08:42Z</time>
      </trkpt>
      <trkpt lat="44.47363" lon="5.58712">
        <ele>1414.72</ele>
        <time>2022-05-19T08:08:59Z</time>
      </trkpt>
      <trkpt lat="44.4737" lon="5.58692">
        <ele>1413.28</ele>
        <time>2022-05-19T08:09:14Z</time>
      </trkpt>
      <trkpt lat="44.47375" lon="5.58671">
        <ele>1413.28</ele>
        <time>2022-05-19T08:09:29Z</time>
      </trkpt>
      <trkpt lat="44.47378" lon="5.58658">
        <ele>1413.28</ele>
        <time>2022-05-19T08:09:44Z</time>
      </trkpt>
      <trkpt lat="44.47379" lon="5.58648">
        <ele>1412.79</ele>
        <time>2022-05-19T08:09:57Z</time>
      </trkpt>
      <trkpt lat="44.47384" lon="5.58629">
        <ele>1412.79</ele>
        <time>2022-05-19T08:10:12Z</time>
      </trkpt>
      <trkpt lat="44.4739" lon="5.58611">
        <ele>1412.79</ele>
        <time>2022-05-19T08:10:25Z</time>
      </trkpt>
      <trkpt lat="44.47394" lon="5.58599">
        <ele>1414.24</ele>
        <time>2022-05-19T08:10:36Z</time>
      </trkpt>
      <trkpt lat="44.47401" lon="5.58574">
        <ele>1414.72</ele>
        <time>2022-05-19T08:10:51Z</time>
      </trkpt>
      <trkpt lat="44.474" lon="5.58559">
        <ele>1415.68</ele>
        <time>2022-05-19T08:11:05Z</time>
      </trkpt>
      <trkpt lat="44.474" lon="5.58551">
        <ele>1415.68</ele>
        <time>2022-05-19T08:11:24Z</time>
      </trkpt>
      <trkpt lat="44.474" lon="5.58542">
        <ele>1415.68</ele>
        <time>2022-05-19T08:11:48Z</time>
      </trkpt>
      <trkpt lat="44.47405" lon="5.58519">
        <ele>1413.28</ele>
        <time>2022-05-19T08:12:08Z</time>
      </trkpt>
      <trkpt lat="44.47407" lon="5.585">
        <ele>1411.83</ele>
        <time>2022-05-19T08:12:23Z</time>
      </trkpt>
      <trkpt lat="44.47411" lon="5.58475">
        <ele>1410.39</ele>
        <time>2022-05-19T08:12:40Z</time>
      </trkpt>
      <trkpt lat="44.47417" lon="5.58456">
        <ele>1408.47</ele>
        <time>2022-05-19T08:12:56Z</time>
      </trkpt>
      <trkpt lat="44.47427" lon="5.58434">
        <ele>1406.55</ele>
        <time>2022-05-19T08:13:13Z</time>
      </trkpt>
      <trkpt lat="44.47429" lon="5.58415">
        <ele>1405.1</ele>
        <time>2022-05-19T08:13:23Z</time>
      </trkpt>
      <trkpt lat="44.47432" lon="5.58396">
        <ele>1404.62</ele>
        <time>2022-05-19T08:13:33Z</time>
      </trkpt>
      <trkpt lat="44.47435" lon="5.58387">
        <ele>1403.66</ele>
        <time>2022-05-19T08:13:40Z</time>
      </trkpt>
      <trkpt lat="44.47439" lon="5.58372">
        <ele>1403.18</ele>
        <time>2022-05-19T08:13:51Z</time>
      </trkpt>
      <trkpt lat="44.47437" lon="5.58344">
        <ele>1400.3</ele>
        <time>2022-05-19T08:14:07Z</time>
      </trkpt>
      <trkpt lat="44.47446" lon="5.58323">
        <ele>1398.86</ele>
        <time>2022-05-19T08:14:21Z</time>
      </trkpt>
      <trkpt lat="44.47458" lon="5.58302">
        <ele>1396.93</ele>
        <time>2022-05-19T08:14:37Z</time>
      </trkpt>
      <trkpt lat="44.47464" lon="5.5827">
        <ele>1395.01</ele>
        <time>2022-05-19T08:14:56Z</time>
      </trkpt>
      <trkpt lat="44.47461" lon="5.58255">
        <ele>1393.57</ele>
        <time>2022-05-19T08:15:11Z</time>
      </trkpt>
      <trkpt lat="44.47459" lon="5.58251">
        <ele>1393.57</ele>
        <time>2022-05-19T08:15:33Z</time>
      </trkpt>
      <trkpt lat="44.47459" lon="5.58234">
        <ele>1393.57</ele>
        <time>2022-05-19T08:15:43Z</time>
      </trkpt>
      <trkpt lat="44.47461" lon="5.58227">
        <ele>1392.61</ele>
        <time>2022-05-19T08:15:48Z</time>
      </trkpt>
      <trkpt lat="44.47463" lon="5.5822">
        <ele>1392.13</ele>
        <time>2022-05-19T08:15:53Z</time>
      </trkpt>
      <trkpt lat="44.47466" lon="5.58206">
        <ele>1391.17</ele>
        <time>2022-05-19T08:16:02Z</time>
      </trkpt>
      <trkpt lat="44.47468" lon="5.58199">
        <ele>1389.72</ele>
        <time>2022-05-19T08:16:07Z</time>
      </trkpt>
      <trkpt lat="44.47473" lon="5.58167">
        <ele>1387.8</ele>
        <time>2022-05-19T08:16:26Z</time>
      </trkpt>
      <trkpt lat="44.47476" lon="5.58137">
        <ele>1386.36</ele>
        <time>2022-05-19T08:16:44Z</time>
      </trkpt>
      <trkpt lat="44.47479" lon="5.58111">
        <ele>1384.44</ele>
        <time>2022-05-19T08:17:01Z</time>
      </trkpt>
      <trkpt lat="44.4748" lon="5.58091">
        <ele>1383.47</ele>
        <time>2022-05-19T08:17:16Z</time>
      </trkpt>
      <trkpt lat="44.47477" lon="5.58086">
        <ele>1383.47</ele>
        <time>2022-05-19T08:17:32Z</time>
      </trkpt>
      <trkpt lat="44.47476" lon="5.58091">
        <ele>1384.44</ele>
        <time>2022-05-19T08:17:46Z</time>
      </trkpt>
      <trkpt lat="44.47472" lon="5.58098">
        <ele>1386.84</ele>
        <time>2022-05-19T08:17:59Z</time>
      </trkpt>
      <trkpt lat="44.47464" lon="5.581">
        <ele>1389.24</ele>
        <time>2022-05-19T08:18:15Z</time>
      </trkpt>
      <trkpt lat="44.47456" lon="5.581">
        <ele>1391.65</ele>
        <time>2022-05-19T08:18:30Z</time>
      </trkpt>
      <trkpt lat="44.47448" lon="5.58098">
        <ele>1394.53</ele>
        <time>2022-05-19T08:18:44Z</time>
      </trkpt>
      <trkpt lat="44.47438" lon="5.58093">
        <ele>1396.93</ele>
        <time>2022-05-19T08:19:00Z</time>
      </trkpt>
      <trkpt lat="44.47432" lon="5.58081">
        <ele>1397.89</ele>
        <time>2022-05-19T08:19:15Z</time>
      </trkpt>
      <trkpt lat="44.47431" lon="5.58076">
        <ele>1399.34</ele>
        <time>2022-05-19T08:24:18Z</time>
      </trkpt>
      <trkpt lat="44.47433" lon="5.58056">
        <ele>1398.37</ele>
        <time>2022-05-19T08:24:36Z</time>
      </trkpt>
      <trkpt lat="44.47433" lon="5.58049">
        <ele>1398.37</ele>
        <time>2022-05-19T08:24:49Z</time>
      </trkpt>
      <trkpt lat="44.47436" lon="5.58042">
        <ele>1398.37</ele>
        <time>2022-05-19T08:25:05Z</time>
      </trkpt>
      <trkpt lat="44.47444" lon="5.58037">
        <ele>1398.86</ele>
        <time>2022-05-19T08:25:18Z</time>
      </trkpt>
      <trkpt lat="44.47447" lon="5.58031">
        <ele>1397.41</ele>
        <time>2022-05-19T08:25:25Z</time>
      </trkpt>
      <trkpt lat="44.4745" lon="5.58009">
        <ele>1396.93</ele>
        <time>2022-05-19T08:25:44Z</time>
      </trkpt>
      <trkpt lat="44.47448" lon="5.58004">
        <ele>1396.93</ele>
        <time>2022-05-19T08:26:00Z</time>
      </trkpt>
      <trkpt lat="44.47448" lon="5.58">
        <ele>1396.93</ele>
        <time>2022-05-19T08:26:23Z</time>
      </trkpt>
      <trkpt lat="44.47448" lon="5.57986">
        <ele>1396.93</ele>
        <time>2022-05-19T08:26:38Z</time>
      </trkpt>
      <trkpt lat="44.47449" lon="5.57978">
        <ele>1398.37</ele>
        <time>2022-05-19T08:26:45Z</time>
      </trkpt>
      <trkpt lat="44.47448" lon="5.57962">
        <ele>1398.37</ele>
        <time>2022-05-19T08:26:59Z</time>
      </trkpt>
      <trkpt lat="44.47447" lon="5.57952">
        <ele>1398.37</ele>
        <time>2022-05-19T08:27:09Z</time>
      </trkpt>
      <trkpt lat="44.47444" lon="5.57933">
        <ele>1398.37</ele>
        <time>2022-05-19T08:27:25Z</time>
      </trkpt>
      <trkpt lat="44.4744" lon="5.57914">
        <ele>1397.41</ele>
        <time>2022-05-19T08:27:39Z</time>
      </trkpt>
      <trkpt lat="44.4744" lon="5.57907">
        <ele>1397.41</ele>
        <time>2022-05-19T08:27:43Z</time>
      </trkpt>
      <trkpt lat="44.47446" lon="5.57889">
        <ele>1397.41</ele>
        <time>2022-05-19T08:27:55Z</time>
      </trkpt>
      <trkpt lat="44.47457" lon="5.57864">
        <ele>1397.41</ele>
        <time>2022-05-19T08:28:13Z</time>
      </trkpt>
      <trkpt lat="44.47454" lon="5.57843">
        <ele>1397.41</ele>
        <time>2022-05-19T08:28:30Z</time>
      </trkpt>
      <trkpt lat="44.47455" lon="5.57824">
        <ele>1397.41</ele>
        <time>2022-05-19T08:28:44Z</time>
      </trkpt>
      <trkpt lat="44.4746" lon="5.57802">
        <ele>1397.41</ele>
        <time>2022-05-19T08:29:00Z</time>
      </trkpt>
      <trkpt lat="44.47465" lon="5.57782">
        <ele>1398.37</ele>
        <time>2022-05-19T08:29:17Z</time>
      </trkpt>
      <trkpt lat="44.47472" lon="5.57761">
        <ele>1398.86</ele>
        <time>2022-05-19T08:29:31Z</time>
      </trkpt>
      <trkpt lat="44.47474" lon="5.57757">
        <ele>1399.34</ele>
        <time>2022-05-19T08:29:34Z</time>
      </trkpt>
      <trkpt lat="44.4748" lon="5.57744">
        <ele>1399.34</ele>
        <time>2022-05-19T08:29:48Z</time>
      </trkpt>
      <trkpt lat="44.47484" lon="5.57736">
        <ele>1399.34</ele>
        <time>2022-05-19T08:30:06Z</time>
      </trkpt>
      <trkpt lat="44.47485" lon="5.57731">
        <ele>1399.34</ele>
        <time>2022-05-19T08:30:34Z</time>
      </trkpt>
      <trkpt lat="44.4749" lon="5.57724">
        <ele>1399.34</ele>
        <time>2022-05-19T08:30:46Z</time>
      </trkpt>
      <trkpt lat="44.47494" lon="5.57715">
        <ele>1399.34</ele>
        <time>2022-05-19T08:30:55Z</time>
      </trkpt>
      <trkpt lat="44.47496" lon="5.577">
        <ele>1399.34</ele>
        <time>2022-05-19T08:31:11Z</time>
      </trkpt>
      <trkpt lat="44.47497" lon="5.57682">
        <ele>1399.34</ele>
        <time>2022-05-19T08:31:28Z</time>
      </trkpt>
      <trkpt lat="44.47495" lon="5.57674">
        <ele>1399.34</ele>
        <time>2022-05-19T08:31:45Z</time>
      </trkpt>
      <trkpt lat="44.47498" lon="5.57666">
        <ele>1399.34</ele>
        <time>2022-05-19T08:33:32Z</time>
      </trkpt>
      <trkpt lat="44.47499" lon="5.5766">
        <ele>1399.34</ele>
        <time>2022-05-19T08:33:36Z</time>
      </trkpt>
      <trkpt lat="44.475" lon="5.57658">
        <ele>1399.34</ele>
        <time>2022-05-19T08:33:38Z</time>
      </trkpt>
      <trkpt lat="44.47501" lon="5.57649">
        <ele>1399.34</ele>
        <time>2022-05-19T08:33:46Z</time>
      </trkpt>
      <trkpt lat="44.47501" lon="5.57635">
        <ele>1401.74</ele>
        <time>2022-05-19T08:34:00Z</time>
      </trkpt>
      <trkpt lat="44.47502" lon="5.57624">
        <ele>1403.18</ele>
        <time>2022-05-19T08:34:11Z</time>
      </trkpt>
      <trkpt lat="44.47506" lon="5.57615">
        <ele>1403.18</ele>
        <time>2022-05-19T08:34:17Z</time>
      </trkpt>
      <trkpt lat="44.4751" lon="5.57604">
        <ele>1401.74</ele>
        <time>2022-05-19T08:34:25Z</time>
      </trkpt>
      <trkpt lat="44.47518" lon="5.57589">
        <ele>1398.86</ele>
        <time>2022-05-19T08:34:40Z</time>
      </trkpt>
      <trkpt lat="44.4752" lon="5.57573">
        <ele>1397.41</ele>
        <time>2022-05-19T08:34:54Z</time>
      </trkpt>
      <trkpt lat="44.47522" lon="5.57561">
        <ele>1396.93</ele>
        <time>2022-05-19T08:35:07Z</time>
      </trkpt>
      <trkpt lat="44.47521" lon="5.57546">
        <ele>1398.37</ele>
        <time>2022-05-19T08:35:19Z</time>
      </trkpt>
      <trkpt lat="44.4753" lon="5.57529">
        <ele>1398.37</ele>
        <time>2022-05-19T08:35:33Z</time>
      </trkpt>
      <trkpt lat="44.47539" lon="5.57509">
        <ele>1398.37</ele>
        <time>2022-05-19T08:35:50Z</time>
      </trkpt>
      <trkpt lat="44.47544" lon="5.57501">
        <ele>1396.93</ele>
        <time>2022-05-19T08:35:56Z</time>
      </trkpt>
      <trkpt lat="44.47549" lon="5.57496">
        <ele>1396.45</ele>
        <time>2022-05-19T08:36:01Z</time>
      </trkpt>
      <trkpt lat="44.4755" lon="5.57494">
        <ele>1396.45</ele>
        <time>2022-05-19T08:36:03Z</time>
      </trkpt>
      <trkpt lat="44.47559" lon="5.57478">
        <ele>1395.97</ele>
        <time>2022-05-19T08:36:18Z</time>
      </trkpt>
      <trkpt lat="44.47562" lon="5.57469">
        <ele>1395.49</ele>
        <time>2022-05-19T08:36:27Z</time>
      </trkpt>
      <trkpt lat="44.47564" lon="5.57448">
        <ele>1395.01</ele>
        <time>2022-05-19T08:36:42Z</time>
      </trkpt>
      <trkpt lat="44.47565" lon="5.57444">
        <ele>1394.53</ele>
        <time>2022-05-19T08:36:45Z</time>
      </trkpt>
      <trkpt lat="44.47572" lon="5.57424">
        <ele>1394.53</ele>
        <time>2022-05-19T08:37:01Z</time>
      </trkpt>
      <trkpt lat="44.47572" lon="5.57421">
        <ele>1394.53</ele>
        <time>2022-05-19T08:37:04Z</time>
      </trkpt>
      <trkpt lat="44.4758" lon="5.57405">
        <ele>1394.53</ele>
        <time>2022-05-19T08:37:18Z</time>
      </trkpt>
      <trkpt lat="44.47581" lon="5.57398">
        <ele>1394.05</ele>
        <time>2022-05-19T08:37:23Z</time>
      </trkpt>
      <trkpt lat="44.47586" lon="5.57382">
        <ele>1393.57</ele>
        <time>2022-05-19T08:37:36Z</time>
      </trkpt>
      <trkpt lat="44.47588" lon="5.57368">
        <ele>1393.57</ele>
        <time>2022-05-19T08:37:48Z</time>
      </trkpt>
      <trkpt lat="44.4759" lon="5.57367">
        <ele>1393.57</ele>
        <time>2022-05-19T08:37:50Z</time>
      </trkpt>
      <trkpt lat="44.47596" lon="5.57349">
        <ele>1392.61</ele>
        <time>2022-05-19T08:38:07Z</time>
      </trkpt>
      <trkpt lat="44.47597" lon="5.57339">
        <ele>1392.61</ele>
        <time>2022-05-19T08:38:29Z</time>
      </trkpt>
      <trkpt lat="44.47597" lon="5.57329">
        <ele>1392.13</ele>
        <time>2022-05-19T08:38:46Z</time>
      </trkpt>
      <trkpt lat="44.47598" lon="5.57319">
        <ele>1394.05</ele>
        <time>2022-05-19T08:39:00Z</time>
      </trkpt>
      <trkpt lat="44.47597" lon="5.5731">
        <ele>1396.45</ele>
        <time>2022-05-19T08:39:15Z</time>
      </trkpt>
      <trkpt lat="44.47597" lon="5.57295">
        <ele>1398.37</ele>
        <time>2022-05-19T08:39:30Z</time>
      </trkpt>
      <trkpt lat="44.47597" lon="5.57293">
        <ele>1398.86</ele>
        <time>2022-05-19T08:39:47Z</time>
      </trkpt>
      <trkpt lat="44.476" lon="5.5728">
        <ele>1399.82</ele>
        <time>2022-05-19T08:40:00Z</time>
      </trkpt>
      <trkpt lat="44.47606" lon="5.57262">
        <ele>1400.78</ele>
        <time>2022-05-19T08:40:16Z</time>
      </trkpt>
      <trkpt lat="44.47614" lon="5.57246">
        <ele>1402.22</ele>
        <time>2022-05-19T08:40:31Z</time>
      </trkpt>
      <trkpt lat="44.4762" lon="5.57233">
        <ele>1402.7</ele>
        <time>2022-05-19T08:40:44Z</time>
      </trkpt>
      <trkpt lat="44.47625" lon="5.57217">
        <ele>1403.66</ele>
        <time>2022-05-19T08:40:56Z</time>
      </trkpt>
      <trkpt lat="44.47634" lon="5.572">
        <ele>1404.14</ele>
        <time>2022-05-19T08:41:10Z</time>
      </trkpt>
      <trkpt lat="44.47646" lon="5.57181">
        <ele>1404.14</ele>
        <time>2022-05-19T08:41:24Z</time>
      </trkpt>
      <trkpt lat="44.47653" lon="5.57166">
        <ele>1405.1</ele>
        <time>2022-05-19T08:41:36Z</time>
      </trkpt>
      <trkpt lat="44.47656" lon="5.57154">
        <ele>1406.55</ele>
        <time>2022-05-19T08:41:49Z</time>
      </trkpt>
      <trkpt lat="44.47661" lon="5.57137">
        <ele>1407.99</ele>
        <time>2022-05-19T08:42:03Z</time>
      </trkpt>
      <trkpt lat="44.47664" lon="5.57125">
        <ele>1408.95</ele>
        <time>2022-05-19T08:42:16Z</time>
      </trkpt>
      <trkpt lat="44.47666" lon="5.57116">
        <ele>1410.87</ele>
        <time>2022-05-19T08:42:30Z</time>
      </trkpt>
      <trkpt lat="44.47671" lon="5.57115">
        <ele>1410.39</ele>
        <time>2022-05-19T08:42:58Z</time>
      </trkpt>
      <trkpt lat="44.47672" lon="5.57106">
        <ele>1411.83</ele>
        <time>2022-05-19T08:43:18Z</time>
      </trkpt>
      <trkpt lat="44.47672" lon="5.57096">
        <ele>1414.24</ele>
        <time>2022-05-19T08:43:34Z</time>
      </trkpt>
      <trkpt lat="44.47672" lon="5.57085">
        <ele>1417.12</ele>
        <time>2022-05-19T08:43:51Z</time>
      </trkpt>
      <trkpt lat="44.47673" lon="5.57072">
        <ele>1418.56</ele>
        <time>2022-05-19T08:44:09Z</time>
      </trkpt>
      <trkpt lat="44.47671" lon="5.5707">
        <ele>1418.56</ele>
        <time>2022-05-19T08:44:24Z</time>
      </trkpt>
      <trkpt lat="44.47669" lon="5.57072">
        <ele>1419.04</ele>
        <time>2022-05-19T08:44:47Z</time>
      </trkpt>
      <trkpt lat="44.47661" lon="5.57079">
        <ele>1420</ele>
        <time>2022-05-19T08:45:03Z</time>
      </trkpt>
      <trkpt lat="44.47651" lon="5.57085">
        <ele>1420.49</ele>
        <time>2022-05-19T08:45:19Z</time>
      </trkpt>
      <trkpt lat="44.47644" lon="5.57093">
        <ele>1420.49</ele>
        <time>2022-05-19T08:45:41Z</time>
      </trkpt>
      <trkpt lat="44.47643" lon="5.57098">
        <ele>1421.93</ele>
        <time>2022-05-19T08:45:57Z</time>
      </trkpt>
      <trkpt lat="44.47637" lon="5.57105">
        <ele>1423.85</ele>
        <time>2022-05-19T08:46:13Z</time>
      </trkpt>
      <trkpt lat="44.47635" lon="5.57109">
        <ele>1424.81</ele>
        <time>2022-05-19T08:46:29Z</time>
      </trkpt>
      <trkpt lat="44.47634" lon="5.57107">
        <ele>1425.77</ele>
        <time>2022-05-19T08:46:52Z</time>
      </trkpt>
      <trkpt lat="44.47635" lon="5.57108">
        <ele>1427.21</ele>
        <time>2022-05-19T08:47:20Z</time>
      </trkpt>
      <trkpt lat="44.47634" lon="5.57109">
        <ele>1427.21</ele>
        <time>2022-05-19T08:47:39Z</time>
      </trkpt>
      <trkpt lat="44.47634" lon="5.57109">
        <ele>1427.21</ele>
        <time>2022-05-19T08:48:07Z</time>
      </trkpt>
      <trkpt lat="44.47626" lon="5.57121">
        <ele>1428.66</ele>
        <time>2022-05-19T08:48:27Z</time>
      </trkpt>
      <trkpt lat="44.47622" lon="5.57129">
        <ele>1431.06</ele>
        <time>2022-05-19T08:48:42Z</time>
      </trkpt>
      <trkpt lat="44.47611" lon="5.57144">
        <ele>1432.02</ele>
        <time>2022-05-19T08:48:58Z</time>
      </trkpt>
      <trkpt lat="44.47607" lon="5.57153">
        <ele>1434.91</ele>
        <time>2022-05-19T08:49:15Z</time>
      </trkpt>
      <trkpt lat="44.47602" lon="5.5716">
        <ele>1438.27</ele>
        <time>2022-05-19T08:49:30Z</time>
      </trkpt>
      <trkpt lat="44.47596" lon="5.57168">
        <ele>1440.19</ele>
        <time>2022-05-19T08:49:48Z</time>
      </trkpt>
      <trkpt lat="44.47589" lon="5.57177">
        <ele>1443.08</ele>
        <time>2022-05-19T08:50:03Z</time>
      </trkpt>
      <trkpt lat="44.47584" lon="5.57182">
        <ele>1444.04</ele>
        <time>2022-05-19T08:50:18Z</time>
      </trkpt>
      <trkpt lat="44.4758" lon="5.57187">
        <ele>1446.92</ele>
        <time>2022-05-19T08:50:36Z</time>
      </trkpt>
      <trkpt lat="44.4758" lon="5.57191">
        <ele>1448.36</ele>
        <time>2022-05-19T08:50:49Z</time>
      </trkpt>
      <trkpt lat="44.47577" lon="5.57199">
        <ele>1450.77</ele>
        <time>2022-05-19T08:51:05Z</time>
      </trkpt>
      <trkpt lat="44.47573" lon="5.57203">
        <ele>1452.21</ele>
        <time>2022-05-19T08:51:22Z</time>
      </trkpt>
      <trkpt lat="44.47568" lon="5.57206">
        <ele>1453.17</ele>
        <time>2022-05-19T08:51:39Z</time>
      </trkpt>
      <trkpt lat="44.47563" lon="5.57214">
        <ele>1454.13</ele>
        <time>2022-05-19T08:51:57Z</time>
      </trkpt>
      <trkpt lat="44.47562" lon="5.57216">
        <ele>1455.57</ele>
        <time>2022-05-19T08:52:14Z</time>
      </trkpt>
      <trkpt lat="44.47558" lon="5.57222">
        <ele>1459.42</ele>
        <time>2022-05-19T08:55:28Z</time>
      </trkpt>
      <trkpt lat="44.47552" lon="5.57231">
        <ele>1460.86</ele>
        <time>2022-05-19T08:55:41Z</time>
      </trkpt>
      <trkpt lat="44.47549" lon="5.57234">
        <ele>1462.3</ele>
        <time>2022-05-19T08:55:57Z</time>
      </trkpt>
      <trkpt lat="44.47545" lon="5.57238">
        <ele>1462.3</ele>
        <time>2022-05-19T08:56:15Z</time>
      </trkpt>
      <trkpt lat="44.47536" lon="5.5725">
        <ele>1463.74</ele>
        <time>2022-05-19T08:56:32Z</time>
      </trkpt>
      <trkpt lat="44.47529" lon="5.57261">
        <ele>1465.67</ele>
        <time>2022-05-19T08:56:47Z</time>
      </trkpt>
      <trkpt lat="44.47528" lon="5.57266">
        <ele>1467.11</ele>
        <time>2022-05-19T08:57:03Z</time>
      </trkpt>
      <trkpt lat="44.47528" lon="5.5727">
        <ele>1469.03</ele>
        <time>2022-05-19T08:57:24Z</time>
      </trkpt>
      <trkpt lat="44.47526" lon="5.57277">
        <ele>1469.03</ele>
        <time>2022-05-19T08:57:38Z</time>
      </trkpt>
      <trkpt lat="44.47523" lon="5.57283">
        <ele>1469.03</ele>
        <time>2022-05-19T08:57:51Z</time>
      </trkpt>
      <trkpt lat="44.47519" lon="5.57291">
        <ele>1471.44</ele>
        <time>2022-05-19T08:58:07Z</time>
      </trkpt>
      <trkpt lat="44.47516" lon="5.57301">
        <ele>1471.44</ele>
        <time>2022-05-19T08:58:23Z</time>
      </trkpt>
      <trkpt lat="44.4751" lon="5.57304">
        <ele>1470.47</ele>
        <time>2022-05-19T09:05:16Z</time>
      </trkpt>
      <trkpt lat="44.47507" lon="5.57313">
        <ele>1471.44</ele>
        <time>2022-05-19T09:05:30Z</time>
      </trkpt>
      <trkpt lat="44.47506" lon="5.57314">
        <ele>1471.44</ele>
        <time>2022-05-19T09:05:31Z</time>
      </trkpt>
      <trkpt lat="44.47505" lon="5.57321">
        <ele>1473.36</ele>
        <time>2022-05-19T09:05:49Z</time>
      </trkpt>
      <trkpt lat="44.47503" lon="5.57323">
        <ele>1473.84</ele>
        <time>2022-05-19T09:06:07Z</time>
      </trkpt>
      <trkpt lat="44.47501" lon="5.57327">
        <ele>1473.84</ele>
        <time>2022-05-19T09:06:25Z</time>
      </trkpt>
      <trkpt lat="44.47495" lon="5.57335">
        <ele>1474.8</ele>
        <time>2022-05-19T09:06:44Z</time>
      </trkpt>
      <trkpt lat="44.47488" lon="5.57341">
        <ele>1474.8</ele>
        <time>2022-05-19T09:06:57Z</time>
      </trkpt>
      <trkpt lat="44.47486" lon="5.57346">
        <ele>1475.76</ele>
        <time>2022-05-19T09:07:11Z</time>
      </trkpt>
      <trkpt lat="44.47485" lon="5.57351">
        <ele>1476.72</ele>
        <time>2022-05-19T09:07:27Z</time>
      </trkpt>
      <trkpt lat="44.47484" lon="5.57352">
        <ele>1476.72</ele>
        <time>2022-05-19T09:07:45Z</time>
      </trkpt>
      <trkpt lat="44.47484" lon="5.57351">
        <ele>1477.2</ele>
        <time>2022-05-19T09:08:14Z</time>
      </trkpt>
      <trkpt lat="44.47483" lon="5.57356">
        <ele>1478.16</ele>
        <time>2022-05-19T09:08:22Z</time>
      </trkpt>
      <trkpt lat="44.47478" lon="5.57363">
        <ele>1478.16</ele>
        <time>2022-05-19T09:08:38Z</time>
      </trkpt>
      <trkpt lat="44.47474" lon="5.57369">
        <ele>1480.09</ele>
        <time>2022-05-19T09:08:52Z</time>
      </trkpt>
      <trkpt lat="44.47471" lon="5.57374">
        <ele>1481.05</ele>
        <time>2022-05-19T09:09:10Z</time>
      </trkpt>
      <trkpt lat="44.47466" lon="5.5738">
        <ele>1482.01</ele>
        <time>2022-05-19T09:09:22Z</time>
      </trkpt>
      <trkpt lat="44.47462" lon="5.57386">
        <ele>1482.97</ele>
        <time>2022-05-19T09:09:36Z</time>
      </trkpt>
      <trkpt lat="44.47458" lon="5.57392">
        <ele>1484.89</ele>
        <time>2022-05-19T09:09:52Z</time>
      </trkpt>
      <trkpt lat="44.47449" lon="5.57403">
        <ele>1486.82</ele>
        <time>2022-05-19T09:10:10Z</time>
      </trkpt>
      <trkpt lat="44.47446" lon="5.57409">
        <ele>1488.74</ele>
        <time>2022-05-19T09:10:22Z</time>
      </trkpt>
      <trkpt lat="44.47438" lon="5.57419">
        <ele>1491.62</ele>
        <time>2022-05-19T09:10:41Z</time>
      </trkpt>
      <trkpt lat="44.47435" lon="5.57424">
        <ele>1492.58</ele>
        <time>2022-05-19T09:11:00Z</time>
      </trkpt>
      <trkpt lat="44.47429" lon="5.57435">
        <ele>1494.51</ele>
        <time>2022-05-19T09:11:15Z</time>
      </trkpt>
      <trkpt lat="44.47421" lon="5.57446">
        <ele>1497.39</ele>
        <time>2022-05-19T09:11:35Z</time>
      </trkpt>
      <trkpt lat="44.47411" lon="5.57459">
        <ele>1498.83</ele>
        <time>2022-05-19T09:11:52Z</time>
      </trkpt>
      <trkpt lat="44.47405" lon="5.5747">
        <ele>1500.76</ele>
        <time>2022-05-19T09:12:07Z</time>
      </trkpt>
      <trkpt lat="44.47397" lon="5.57478">
        <ele>1501.72</ele>
        <time>2022-05-19T09:12:24Z</time>
      </trkpt>
      <trkpt lat="44.47392" lon="5.57482">
        <ele>1502.2</ele>
        <time>2022-05-19T09:12:38Z</time>
      </trkpt>
      <trkpt lat="44.47388" lon="5.57493">
        <ele>1503.64</ele>
        <time>2022-05-19T09:12:54Z</time>
      </trkpt>
      <trkpt lat="44.47385" lon="5.57503">
        <ele>1505.56</ele>
        <time>2022-05-19T09:13:10Z</time>
      </trkpt>
      <trkpt lat="44.47381" lon="5.57515">
        <ele>1507.48</ele>
        <time>2022-05-19T09:13:28Z</time>
      </trkpt>
      <trkpt lat="44.47375" lon="5.57528">
        <ele>1509.89</ele>
        <time>2022-05-19T09:13:45Z</time>
      </trkpt>
      <trkpt lat="44.47374" lon="5.57529">
        <ele>1510.85</ele>
        <time>2022-05-19T09:14:02Z</time>
      </trkpt>
      <trkpt lat="44.47372" lon="5.57532">
        <ele>1511.33</ele>
        <time>2022-05-19T09:14:23Z</time>
      </trkpt>
      <trkpt lat="44.47365" lon="5.57538">
        <ele>1511.33</ele>
        <time>2022-05-19T09:14:39Z</time>
      </trkpt>
      <trkpt lat="44.47361" lon="5.57541">
        <ele>1509.89</ele>
        <time>2022-05-19T09:14:52Z</time>
      </trkpt>
      <trkpt lat="44.47354" lon="5.57547">
        <ele>1508.93</ele>
        <time>2022-05-19T09:15:05Z</time>
      </trkpt>
      <trkpt lat="44.47347" lon="5.57553">
        <ele>1507.48</ele>
        <time>2022-05-19T09:15:19Z</time>
      </trkpt>
      <trkpt lat="44.47345" lon="5.57557">
        <ele>1507</ele>
        <time>2022-05-19T09:15:33Z</time>
      </trkpt>
      <trkpt lat="44.47342" lon="5.57561">
        <ele>1508.45</ele>
        <time>2022-05-19T09:16:14Z</time>
      </trkpt>
      <trkpt lat="44.47342" lon="5.57564">
        <ele>1509.89</ele>
        <time>2022-05-19T09:16:34Z</time>
      </trkpt>
      <trkpt lat="44.47342" lon="5.5757">
        <ele>1510.37</ele>
        <time>2022-05-19T09:16:59Z</time>
      </trkpt>
      <trkpt lat="44.47341" lon="5.57578">
        <ele>1512.29</ele>
        <time>2022-05-19T09:17:14Z</time>
      </trkpt>
      <trkpt lat="44.47335" lon="5.57591">
        <ele>1514.21</ele>
        <time>2022-05-19T09:17:30Z</time>
      </trkpt>
      <trkpt lat="44.47334" lon="5.57599">
        <ele>1516.14</ele>
        <time>2022-05-19T09:21:17Z</time>
      </trkpt>
      <trkpt lat="44.47333" lon="5.57606">
        <ele>1518.06</ele>
        <time>2022-05-19T09:21:29Z</time>
      </trkpt>
      <trkpt lat="44.47325" lon="5.57616">
        <ele>1519.02</ele>
        <time>2022-05-19T09:21:44Z</time>
      </trkpt>
      <trkpt lat="44.47325" lon="5.57618">
        <ele>1519.02</ele>
        <time>2022-05-19T09:21:46Z</time>
      </trkpt>
      <trkpt lat="44.47322" lon="5.57626">
        <ele>1519.5</ele>
        <time>2022-05-19T09:21:58Z</time>
      </trkpt>
      <trkpt lat="44.47321" lon="5.57627">
        <ele>1519.5</ele>
        <time>2022-05-19T09:21:59Z</time>
      </trkpt>
      <trkpt lat="44.47319" lon="5.57635">
        <ele>1520.46</ele>
        <time>2022-05-19T09:22:06Z</time>
      </trkpt>
      <trkpt lat="44.47317" lon="5.5765">
        <ele>1522.39</ele>
        <time>2022-05-19T09:22:21Z</time>
      </trkpt>
      <trkpt lat="44.47311" lon="5.57663">
        <ele>1524.31</ele>
        <time>2022-05-19T09:22:36Z</time>
      </trkpt>
      <trkpt lat="44.4731" lon="5.57664">
        <ele>1524.31</ele>
        <time>2022-05-19T09:22:37Z</time>
      </trkpt>
      <trkpt lat="44.47308" lon="5.57675">
        <ele>1527.19</ele>
        <time>2022-05-19T09:22:52Z</time>
      </trkpt>
      <trkpt lat="44.47304" lon="5.57685">
        <ele>1529.59</ele>
        <time>2022-05-19T09:23:08Z</time>
      </trkpt>
      <trkpt lat="44.47298" lon="5.57694">
        <ele>1530.56</ele>
        <time>2022-05-19T09:23:23Z</time>
      </trkpt>
      <trkpt lat="44.47292" lon="5.577">
        <ele>1532</ele>
        <time>2022-05-19T09:23:38Z</time>
      </trkpt>
      <trkpt lat="44.47287" lon="5.57706">
        <ele>1532.96</ele>
        <time>2022-05-19T09:23:57Z</time>
      </trkpt>
      <trkpt lat="44.47285" lon="5.57714">
        <ele>1533.92</ele>
        <time>2022-05-19T09:24:11Z</time>
      </trkpt>
      <trkpt lat="44.47284" lon="5.57719">
        <ele>1535.84</ele>
        <time>2022-05-19T09:24:27Z</time>
      </trkpt>
      <trkpt lat="44.47282" lon="5.57723">
        <ele>1536.32</ele>
        <time>2022-05-19T09:24:45Z</time>
      </trkpt>
      <trkpt lat="44.47278" lon="5.57731">
        <ele>1539.69</ele>
        <time>2022-05-19T09:25:00Z</time>
      </trkpt>
      <trkpt lat="44.47273" lon="5.57745">
        <ele>1541.61</ele>
        <time>2022-05-19T09:25:17Z</time>
      </trkpt>
      <trkpt lat="44.47269" lon="5.57757">
        <ele>1544.01</ele>
        <time>2022-05-19T09:25:35Z</time>
      </trkpt>
      <trkpt lat="44.47265" lon="5.57768">
        <ele>1546.42</ele>
        <time>2022-05-19T09:25:51Z</time>
      </trkpt>
      <trkpt lat="44.47264" lon="5.57769">
        <ele>1546.42</ele>
        <time>2022-05-19T09:25:52Z</time>
      </trkpt>
      <trkpt lat="44.47258" lon="5.57781">
        <ele>1548.82</ele>
        <time>2022-05-19T09:26:08Z</time>
      </trkpt>
      <trkpt lat="44.47253" lon="5.57793">
        <ele>1550.74</ele>
        <time>2022-05-19T09:26:22Z</time>
      </trkpt>
      <trkpt lat="44.47248" lon="5.57803">
        <ele>1553.15</ele>
        <time>2022-05-19T09:26:37Z</time>
      </trkpt>
      <trkpt lat="44.47239" lon="5.57811">
        <ele>1554.59</ele>
        <time>2022-05-19T09:26:52Z</time>
      </trkpt>
      <trkpt lat="44.47231" lon="5.57823">
        <ele>1556.99</ele>
        <time>2022-05-19T09:27:10Z</time>
      </trkpt>
      <trkpt lat="44.47225" lon="5.57839">
        <ele>1559.4</ele>
        <time>2022-05-19T09:27:28Z</time>
      </trkpt>
      <trkpt lat="44.47221" lon="5.57844">
        <ele>1557.95</ele>
        <time>2022-05-19T09:27:33Z</time>
      </trkpt>
      <trkpt lat="44.47217" lon="5.5785">
        <ele>1559.4</ele>
        <time>2022-05-19T09:27:41Z</time>
      </trkpt>
      <trkpt lat="44.47211" lon="5.57862">
        <ele>1561.32</ele>
        <time>2022-05-19T09:27:56Z</time>
      </trkpt>
      <trkpt lat="44.47207" lon="5.57869">
        <ele>1564.68</ele>
        <time>2022-05-19T09:28:10Z</time>
      </trkpt>
      <trkpt lat="44.47202" lon="5.57881">
        <ele>1565.64</ele>
        <time>2022-05-19T09:28:24Z</time>
      </trkpt>
      <trkpt lat="44.47202" lon="5.57887">
        <ele>1566.61</ele>
        <time>2022-05-19T09:28:36Z</time>
      </trkpt>
      <trkpt lat="44.472" lon="5.579">
        <ele>1568.05</ele>
        <time>2022-05-19T09:28:52Z</time>
      </trkpt>
      <trkpt lat="44.47194" lon="5.57909">
        <ele>1569.49</ele>
        <time>2022-05-19T09:29:08Z</time>
      </trkpt>
      <trkpt lat="44.47189" lon="5.57916">
        <ele>1571.89</ele>
        <time>2022-05-19T09:29:21Z</time>
      </trkpt>
      <trkpt lat="44.47187" lon="5.57925">
        <ele>1574.78</ele>
        <time>2022-05-19T09:29:37Z</time>
      </trkpt>
      <trkpt lat="44.47183" lon="5.57934">
        <ele>1576.22</ele>
        <time>2022-05-19T09:29:55Z</time>
      </trkpt>
      <trkpt lat="44.47181" lon="5.57942">
        <ele>1578.14</ele>
        <time>2022-05-19T09:30:12Z</time>
      </trkpt>
      <trkpt lat="44.47179" lon="5.57948">
        <ele>1579.1</ele>
        <time>2022-05-19T09:30:26Z</time>
      </trkpt>
      <trkpt lat="44.47179" lon="5.5795">
        <ele>1579.1</ele>
        <time>2022-05-19T09:30:28Z</time>
      </trkpt>
      <trkpt lat="44.47175" lon="5.5796">
        <ele>1581.51</ele>
        <time>2022-05-19T09:30:41Z</time>
      </trkpt>
      <trkpt lat="44.47173" lon="5.57967">
        <ele>1581.51</ele>
        <time>2022-05-19T09:30:54Z</time>
      </trkpt>
      <trkpt lat="44.47169" lon="5.57975">
        <ele>1580.06</ele>
        <time>2022-05-19T09:31:09Z</time>
      </trkpt>
      <trkpt lat="44.47166" lon="5.57978">
        <ele>1583.43</ele>
        <time>2022-05-19T09:39:13Z</time>
      </trkpt>
      <trkpt lat="44.47166" lon="5.57979">
        <ele>1583.43</ele>
        <time>2022-05-19T09:39:16Z</time>
      </trkpt>
      <trkpt lat="44.47163" lon="5.57986">
        <ele>1583.91</ele>
        <time>2022-05-19T09:39:24Z</time>
      </trkpt>
      <trkpt lat="44.47156" lon="5.58004">
        <ele>1584.87</ele>
        <time>2022-05-19T09:39:39Z</time>
      </trkpt>
      <trkpt lat="44.47153" lon="5.58015">
        <ele>1585.83</ele>
        <time>2022-05-19T09:39:54Z</time>
      </trkpt>
      <trkpt lat="44.47152" lon="5.58021">
        <ele>1587.27</ele>
        <time>2022-05-19T09:40:07Z</time>
      </trkpt>
      <trkpt lat="44.47152" lon="5.58031">
        <ele>1587.75</ele>
        <time>2022-05-19T09:40:24Z</time>
      </trkpt>
      <trkpt lat="44.47147" lon="5.58048">
        <ele>1589.2</ele>
        <time>2022-05-19T09:40:41Z</time>
      </trkpt>
      <trkpt lat="44.47142" lon="5.58061">
        <ele>1590.64</ele>
        <time>2022-05-19T09:40:55Z</time>
      </trkpt>
      <trkpt lat="44.47137" lon="5.5807">
        <ele>1592.56</ele>
        <time>2022-05-19T09:41:10Z</time>
      </trkpt>
      <trkpt lat="44.47129" lon="5.5808">
        <ele>1593.04</ele>
        <time>2022-05-19T09:41:26Z</time>
      </trkpt>
      <trkpt lat="44.47124" lon="5.5809">
        <ele>1594</ele>
        <time>2022-05-19T09:41:41Z</time>
      </trkpt>
      <trkpt lat="44.47123" lon="5.58097">
        <ele>1596.89</ele>
        <time>2022-05-19T09:41:56Z</time>
      </trkpt>
      <trkpt lat="44.47125" lon="5.58101">
        <ele>1597.37</ele>
        <time>2022-05-19T09:42:11Z</time>
      </trkpt>
      <trkpt lat="44.47126" lon="5.58101">
        <ele>1597.37</ele>
        <time>2022-05-19T09:42:28Z</time>
      </trkpt>
      <trkpt lat="44.47124" lon="5.58109">
        <ele>1598.33</ele>
        <time>2022-05-19T09:42:58Z</time>
      </trkpt>
      <trkpt lat="44.47117" lon="5.5812">
        <ele>1599.77</ele>
        <time>2022-05-19T09:43:12Z</time>
      </trkpt>
      <trkpt lat="44.47114" lon="5.58134">
        <ele>1602.66</ele>
        <time>2022-05-19T09:43:29Z</time>
      </trkpt>
      <trkpt lat="44.4711" lon="5.58147">
        <ele>1604.58</ele>
        <time>2022-05-19T09:43:43Z</time>
      </trkpt>
      <trkpt lat="44.47109" lon="5.58148">
        <ele>1605.54</ele>
        <time>2022-05-19T09:43:44Z</time>
      </trkpt>
      <trkpt lat="44.47102" lon="5.58168">
        <ele>1606.02</ele>
        <time>2022-05-19T09:44:00Z</time>
      </trkpt>
      <trkpt lat="44.47094" lon="5.58186">
        <ele>1606.98</ele>
        <time>2022-05-19T09:44:15Z</time>
      </trkpt>
      <trkpt lat="44.4709" lon="5.58206">
        <ele>1608.42</ele>
        <time>2022-05-19T09:44:30Z</time>
      </trkpt>
      <trkpt lat="44.47085" lon="5.58224">
        <ele>1609.86</ele>
        <time>2022-05-19T09:44:45Z</time>
      </trkpt>
      <trkpt lat="44.47081" lon="5.58234">
        <ele>1612.27</ele>
        <time>2022-05-19T09:44:59Z</time>
      </trkpt>
      <trkpt lat="44.4708" lon="5.58236">
        <ele>1612.27</ele>
        <time>2022-05-19T09:45:01Z</time>
      </trkpt>
      <trkpt lat="44.47079" lon="5.5824">
        <ele>1612.27</ele>
        <time>2022-05-19T09:45:05Z</time>
      </trkpt>
      <trkpt lat="44.47074" lon="5.58253">
        <ele>1613.23</ele>
        <time>2022-05-19T09:45:20Z</time>
      </trkpt>
      <trkpt lat="44.47074" lon="5.58265">
        <ele>1614.67</ele>
        <time>2022-05-19T09:45:37Z</time>
      </trkpt>
      <trkpt lat="44.47069" lon="5.58276">
        <ele>1617.56</ele>
        <time>2022-05-19T09:45:51Z</time>
      </trkpt>
      <trkpt lat="44.47064" lon="5.58291">
        <ele>1620.44</ele>
        <time>2022-05-19T09:46:11Z</time>
      </trkpt>
      <trkpt lat="44.4706" lon="5.58307">
        <ele>1619.48</ele>
        <time>2022-05-19T09:46:27Z</time>
      </trkpt>
      <trkpt lat="44.4706" lon="5.58309">
        <ele>1619.48</ele>
        <time>2022-05-19T09:46:46Z</time>
      </trkpt>
      <trkpt lat="44.47056" lon="5.5832">
        <ele>1619.96</ele>
        <time>2022-05-19T09:47:00Z</time>
      </trkpt>
      <trkpt lat="44.47054" lon="5.58328">
        <ele>1620.92</ele>
        <time>2022-05-19T09:47:15Z</time>
      </trkpt>
      <trkpt lat="44.47052" lon="5.58337">
        <ele>1621.4</ele>
        <time>2022-05-19T09:47:25Z</time>
      </trkpt>
      <trkpt lat="44.47045" lon="5.58349">
        <ele>1622.36</ele>
        <time>2022-05-19T09:47:40Z</time>
      </trkpt>
      <trkpt lat="44.47042" lon="5.58359">
        <ele>1622.36</ele>
        <time>2022-05-19T09:47:50Z</time>
      </trkpt>
      <trkpt lat="44.47041" lon="5.58367">
        <ele>1623.8</ele>
        <time>2022-05-19T09:47:57Z</time>
      </trkpt>
      <trkpt lat="44.47037" lon="5.5838">
        <ele>1625.73</ele>
        <time>2022-05-19T09:48:10Z</time>
      </trkpt>
      <trkpt lat="44.47035" lon="5.58383">
        <ele>1627.17</ele>
        <time>2022-05-19T09:48:16Z</time>
      </trkpt>
      <trkpt lat="44.47035" lon="5.58386">
        <ele>1628.13</ele>
        <time>2022-05-19T09:48:18Z</time>
      </trkpt>
      <trkpt lat="44.47034" lon="5.58394">
        <ele>1628.13</ele>
        <time>2022-05-19T09:48:24Z</time>
      </trkpt>
      <trkpt lat="44.47032" lon="5.58404">
        <ele>1626.69</ele>
        <time>2022-05-19T09:48:33Z</time>
      </trkpt>
      <trkpt lat="44.47024" lon="5.58417">
        <ele>1629.09</ele>
        <time>2022-05-19T09:48:45Z</time>
      </trkpt>
      <trkpt lat="44.47018" lon="5.58432">
        <ele>1630.53</ele>
        <time>2022-05-19T09:48:57Z</time>
      </trkpt>
      <trkpt lat="44.47014" lon="5.58446">
        <ele>1631.01</ele>
        <time>2022-05-19T09:49:09Z</time>
      </trkpt>
      <trkpt lat="44.47012" lon="5.58464">
        <ele>1632.94</ele>
        <time>2022-05-19T09:49:25Z</time>
      </trkpt>
      <trkpt lat="44.47009" lon="5.58479">
        <ele>1635.34</ele>
        <time>2022-05-19T09:49:39Z</time>
      </trkpt>
      <trkpt lat="44.47008" lon="5.58486">
        <ele>1635.82</ele>
        <time>2022-05-19T09:49:45Z</time>
      </trkpt>
      <trkpt lat="44.47002" lon="5.58505">
        <ele>1637.26</ele>
        <time>2022-05-19T09:50:01Z</time>
      </trkpt>
      <trkpt lat="44.46997" lon="5.58523">
        <ele>1639.67</ele>
        <time>2022-05-19T09:50:17Z</time>
      </trkpt>
      <trkpt lat="44.46996" lon="5.58528">
        <ele>1641.59</ele>
        <time>2022-05-19T09:50:32Z</time>
      </trkpt>
      <trkpt lat="44.46995" lon="5.58533">
        <ele>1641.11</ele>
        <time>2022-05-19T09:50:50Z</time>
      </trkpt>
      <trkpt lat="44.46993" lon="5.5854">
        <ele>1639.67</ele>
        <time>2022-05-19T09:50:59Z</time>
      </trkpt>
      <trkpt lat="44.46988" lon="5.58558">
        <ele>1639.67</ele>
        <time>2022-05-19T09:51:14Z</time>
      </trkpt>
      <trkpt lat="44.46986" lon="5.58564">
        <ele>1641.11</ele>
        <time>2022-05-19T09:51:20Z</time>
      </trkpt>
      <trkpt lat="44.46985" lon="5.58566">
        <ele>1641.11</ele>
        <time>2022-05-19T09:51:36Z</time>
      </trkpt>
      <trkpt lat="44.46983" lon="5.58584">
        <ele>1641.59</ele>
        <time>2022-05-19T09:51:52Z</time>
      </trkpt>
      <trkpt lat="44.46978" lon="5.58599">
        <ele>1642.07</ele>
        <time>2022-05-19T09:52:07Z</time>
      </trkpt>
      <trkpt lat="44.46976" lon="5.58603">
        <ele>1640.15</ele>
        <time>2022-05-19T09:52:24Z</time>
      </trkpt>
      <trkpt lat="44.46978" lon="5.58606">
        <ele>1641.59</ele>
        <time>2022-05-19T09:52:38Z</time>
      </trkpt>
      <trkpt lat="44.46975" lon="5.58609">
        <ele>1642.07</ele>
        <time>2022-05-19T09:52:58Z</time>
      </trkpt>
      <trkpt lat="44.46972" lon="5.5862">
        <ele>1642.07</ele>
        <time>2022-05-19T09:53:12Z</time>
      </trkpt>
      <trkpt lat="44.46969" lon="5.5863">
        <ele>1641.11</ele>
        <time>2022-05-19T09:53:25Z</time>
      </trkpt>
      <trkpt lat="44.46961" lon="5.58645">
        <ele>1638.7</ele>
        <time>2022-05-19T09:53:41Z</time>
      </trkpt>
      <trkpt lat="44.46958" lon="5.58658">
        <ele>1639.67</ele>
        <time>2022-05-19T09:53:56Z</time>
      </trkpt>
      <trkpt lat="44.46955" lon="5.5867">
        <ele>1642.55</ele>
        <time>2022-05-19T09:54:12Z</time>
      </trkpt>
      <trkpt lat="44.46954" lon="5.58677">
        <ele>1643.51</ele>
        <time>2022-05-19T09:54:25Z</time>
      </trkpt>
      <trkpt lat="44.46951" lon="5.58687">
        <ele>1644.47</ele>
        <time>2022-05-19T09:54:39Z</time>
      </trkpt>
      <trkpt lat="44.46951" lon="5.58689">
        <ele>1644.47</ele>
        <time>2022-05-19T09:54:53Z</time>
      </trkpt>
      <trkpt lat="44.46951" lon="5.58692">
        <ele>1644.95</ele>
        <time>2022-05-19T09:55:10Z</time>
      </trkpt>
      <trkpt lat="44.4695" lon="5.58703">
        <ele>1645.91</ele>
        <time>2022-05-19T09:55:27Z</time>
      </trkpt>
      <trkpt lat="44.46948" lon="5.58707">
        <ele>1646.4</ele>
        <time>2022-05-19T09:55:41Z</time>
      </trkpt>
      <trkpt lat="44.46944" lon="5.58717">
        <ele>1646.88</ele>
        <time>2022-05-19T09:55:59Z</time>
      </trkpt>
      <trkpt lat="44.46943" lon="5.58724">
        <ele>1648.8</ele>
        <time>2022-05-19T09:56:15Z</time>
      </trkpt>
      <trkpt lat="44.46941" lon="5.58732">
        <ele>1650.24</ele>
        <time>2022-05-19T09:56:30Z</time>
      </trkpt>
      <trkpt lat="44.46939" lon="5.58741">
        <ele>1651.2</ele>
        <time>2022-05-19T09:56:43Z</time>
      </trkpt>
      <trkpt lat="44.46938" lon="5.58751">
        <ele>1652.16</ele>
        <time>2022-05-19T09:56:59Z</time>
      </trkpt>
      <trkpt lat="44.46939" lon="5.58757">
        <ele>1652.64</ele>
        <time>2022-05-19T09:57:18Z</time>
      </trkpt>
      <trkpt lat="44.46937" lon="5.58761">
        <ele>1654.09</ele>
        <time>2022-05-19T09:57:31Z</time>
      </trkpt>
      <trkpt lat="44.46937" lon="5.58766">
        <ele>1654.09</ele>
        <time>2022-05-19T09:57:44Z</time>
      </trkpt>
      <trkpt lat="44.46933" lon="5.58776">
        <ele>1656.49</ele>
        <time>2022-05-19T09:58:00Z</time>
      </trkpt>
      <trkpt lat="44.4693" lon="5.58785">
        <ele>1657.93</ele>
        <time>2022-05-19T09:58:13Z</time>
      </trkpt>
      <trkpt lat="44.46923" lon="5.58793">
        <ele>1657.45</ele>
        <time>2022-05-19T09:58:26Z</time>
      </trkpt>
      <trkpt lat="44.46922" lon="5.58799">
        <ele>1657.45</ele>
        <time>2022-05-19T09:58:42Z</time>
      </trkpt>
      <trkpt lat="44.46922" lon="5.58799">
        <ele>1658.89</ele>
        <time>2022-05-19T09:58:44Z</time>
      </trkpt>
      <trkpt lat="44.46922" lon="5.58801">
        <ele>1659.37</ele>
        <time>2022-05-19T09:59:03Z</time>
      </trkpt>
      <trkpt lat="44.4692" lon="5.58802">
        <ele>1659.85</ele>
        <time>2022-05-19T09:59:23Z</time>
      </trkpt>
      <trkpt lat="44.4692" lon="5.58807">
        <ele>1661.3</ele>
        <time>2022-05-19T09:59:41Z</time>
      </trkpt>
      <trkpt lat="44.46918" lon="5.58811">
        <ele>1664.66</ele>
        <time>2022-05-19T09:59:49Z</time>
      </trkpt>
      <trkpt lat="44.46916" lon="5.58818">
        <ele>1665.62</ele>
        <time>2022-05-19T10:00:02Z</time>
      </trkpt>
      <trkpt lat="44.46913" lon="5.58826">
        <ele>1666.1</ele>
        <time>2022-05-19T10:00:17Z</time>
      </trkpt>
      <trkpt lat="44.46913" lon="5.58831">
        <ele>1667.06</ele>
        <time>2022-05-19T10:00:33Z</time>
      </trkpt>
      <trkpt lat="44.46913" lon="5.58833">
        <ele>1668.02</ele>
        <time>2022-05-19T10:00:56Z</time>
      </trkpt>
      <trkpt lat="44.46913" lon="5.58835">
        <ele>1671.39</ele>
        <time>2022-05-19T10:01:05Z</time>
      </trkpt>
      <trkpt lat="44.46913" lon="5.58835">
        <ele>1671.39</ele>
        <time>2022-05-19T10:01:06Z</time>
      </trkpt>
      <trkpt lat="44.46914" lon="5.58839">
        <ele>1670.43</ele>
        <time>2022-05-19T10:01:12Z</time>
      </trkpt>
      <trkpt lat="44.46913" lon="5.58843">
        <ele>1671.87</ele>
        <time>2022-05-19T10:01:18Z</time>
      </trkpt>
      <trkpt lat="44.46911" lon="5.5885">
        <ele>1671.87</ele>
        <time>2022-05-19T10:01:28Z</time>
      </trkpt>
      <trkpt lat="44.46909" lon="5.58861">
        <ele>1672.83</ele>
        <time>2022-05-19T10:01:41Z</time>
      </trkpt>
      <trkpt lat="44.46905" lon="5.58869">
        <ele>1673.79</ele>
        <time>2022-05-19T10:01:57Z</time>
      </trkpt>
      <trkpt lat="44.46902" lon="5.58883">
        <ele>1673.79</ele>
        <time>2022-05-19T10:02:13Z</time>
      </trkpt>
      <trkpt lat="44.46896" lon="5.58898">
        <ele>1673.79</ele>
        <time>2022-05-19T10:02:28Z</time>
      </trkpt>
      <trkpt lat="44.46893" lon="5.58917">
        <ele>1674.75</ele>
        <time>2022-05-19T10:02:45Z</time>
      </trkpt>
      <trkpt lat="44.46891" lon="5.58928">
        <ele>1676.68</ele>
        <time>2022-05-19T10:02:56Z</time>
      </trkpt>
      <trkpt lat="44.46889" lon="5.58948">
        <ele>1678.12</ele>
        <time>2022-05-19T10:03:14Z</time>
      </trkpt>
      <trkpt lat="44.46889" lon="5.58954">
        <ele>1678.6</ele>
        <time>2022-05-19T10:03:18Z</time>
      </trkpt>
      <trkpt lat="44.46884" lon="5.58971">
        <ele>1680.04</ele>
        <time>2022-05-19T10:03:33Z</time>
      </trkpt>
      <trkpt lat="44.46879" lon="5.5898">
        <ele>1682.93</ele>
        <time>2022-05-19T10:03:47Z</time>
      </trkpt>
      <trkpt lat="44.46875" lon="5.58991">
        <ele>1679.56</ele>
        <time>2022-05-19T10:04:02Z</time>
      </trkpt>
      <trkpt lat="44.46871" lon="5.58999">
        <ele>1678.12</ele>
        <time>2022-05-19T10:04:15Z</time>
      </trkpt>
      <trkpt lat="44.46866" lon="5.59001">
        <ele>1678.6</ele>
        <time>2022-05-19T10:04:32Z</time>
      </trkpt>
      <trkpt lat="44.46863" lon="5.59008">
        <ele>1677.16</ele>
        <time>2022-05-19T10:04:42Z</time>
      </trkpt>
      <trkpt lat="44.46863" lon="5.5901">
        <ele>1676.2</ele>
        <time>2022-05-19T10:04:59Z</time>
      </trkpt>
      <trkpt lat="44.46861" lon="5.59012">
        <ele>1676.2</ele>
        <time>2022-05-19T10:05:14Z</time>
      </trkpt>
      <trkpt lat="44.4686" lon="5.59012">
        <ele>1678.6</ele>
        <time>2022-05-19T10:05:17Z</time>
      </trkpt>
      <trkpt lat="44.4686" lon="5.59011">
        <ele>1677.16</ele>
        <time>2022-05-19T10:05:22Z</time>
      </trkpt>
      <trkpt lat="44.46858" lon="5.59008">
        <ele>1675.23</ele>
        <time>2022-05-19T10:05:33Z</time>
      </trkpt>
      <trkpt lat="44.46857" lon="5.59008">
        <ele>1676.68</ele>
        <time>2022-05-19T10:05:38Z</time>
      </trkpt>
      <trkpt lat="44.46856" lon="5.59015">
        <ele>1678.6</ele>
        <time>2022-05-19T10:05:52Z</time>
      </trkpt>
      <trkpt lat="44.46855" lon="5.59019">
        <ele>1677.16</ele>
        <time>2022-05-19T10:05:57Z</time>
      </trkpt>
      <trkpt lat="44.46849" lon="5.5903">
        <ele>1676.68</ele>
        <time>2022-05-19T10:06:12Z</time>
      </trkpt>
      <trkpt lat="44.46848" lon="5.59032">
        <ele>1678.12</ele>
        <time>2022-05-19T10:06:14Z</time>
      </trkpt>
      <trkpt lat="44.46845" lon="5.59042">
        <ele>1678.6</ele>
        <time>2022-05-19T10:06:29Z</time>
      </trkpt>
      <trkpt lat="44.46841" lon="5.59056">
        <ele>1680.52</ele>
        <time>2022-05-19T10:06:44Z</time>
      </trkpt>
      <trkpt lat="44.46836" lon="5.5907">
        <ele>1681.96</ele>
        <time>2022-05-19T10:06:58Z</time>
      </trkpt>
      <trkpt lat="44.46831" lon="5.59082">
        <ele>1681</ele>
        <time>2022-05-19T10:07:13Z</time>
      </trkpt>
      <trkpt lat="44.46826" lon="5.59096">
        <ele>1680.52</ele>
        <time>2022-05-19T10:07:27Z</time>
      </trkpt>
      <trkpt lat="44.46819" lon="5.59113">
        <ele>1681</ele>
        <time>2022-05-19T10:07:44Z</time>
      </trkpt>
      <trkpt lat="44.46813" lon="5.59127">
        <ele>1681</ele>
        <time>2022-05-19T10:07:58Z</time>
      </trkpt>
      <trkpt lat="44.46813" lon="5.5913">
        <ele>1683.41</ele>
        <time>2022-05-19T10:10:38Z</time>
      </trkpt>
      <trkpt lat="44.46814" lon="5.59132">
        <ele>1682.44</ele>
        <time>2022-05-19T10:11:04Z</time>
      </trkpt>
      <trkpt lat="44.46807" lon="5.59143">
        <ele>1682.44</ele>
        <time>2022-05-19T10:11:18Z</time>
      </trkpt>
      <trkpt lat="44.46806" lon="5.59144">
        <ele>1683.89</ele>
        <time>2022-05-19T10:11:20Z</time>
      </trkpt>
      <trkpt lat="44.46799" lon="5.59161">
        <ele>1685.81</ele>
        <time>2022-05-19T10:11:36Z</time>
      </trkpt>
      <trkpt lat="44.46795" lon="5.59171">
        <ele>1686.77</ele>
        <time>2022-05-19T10:11:49Z</time>
      </trkpt>
      <trkpt lat="44.4679" lon="5.5918">
        <ele>1687.73</ele>
        <time>2022-05-19T10:12:02Z</time>
      </trkpt>
      <trkpt lat="44.46783" lon="5.59198">
        <ele>1687.73</ele>
        <time>2022-05-19T10:12:17Z</time>
      </trkpt>
      <trkpt lat="44.46779" lon="5.59211">
        <ele>1688.69</ele>
        <time>2022-05-19T10:12:29Z</time>
      </trkpt>
      <trkpt lat="44.46774" lon="5.59226">
        <ele>1689.17</ele>
        <time>2022-05-19T10:12:46Z</time>
      </trkpt>
      <trkpt lat="44.4677" lon="5.59237">
        <ele>1689.65</ele>
        <time>2022-05-19T10:12:59Z</time>
      </trkpt>
      <trkpt lat="44.46767" lon="5.59247">
        <ele>1692.06</ele>
        <time>2022-05-19T10:13:11Z</time>
      </trkpt>
      <trkpt lat="44.46763" lon="5.59257">
        <ele>1693.98</ele>
        <time>2022-05-19T10:13:25Z</time>
      </trkpt>
      <trkpt lat="44.46763" lon="5.59264">
        <ele>1695.9</ele>
        <time>2022-05-19T10:13:39Z</time>
      </trkpt>
      <trkpt lat="44.4676" lon="5.59271">
        <ele>1698.31</ele>
        <time>2022-05-19T10:13:50Z</time>
      </trkpt>
      <trkpt lat="44.46758" lon="5.5928">
        <ele>1700.71</ele>
        <time>2022-05-19T10:14:03Z</time>
      </trkpt>
      <trkpt lat="44.46756" lon="5.59284">
        <ele>1701.19</ele>
        <time>2022-05-19T10:14:09Z</time>
      </trkpt>
      <trkpt lat="44.46751" lon="5.59304">
        <ele>1701.67</ele>
        <time>2022-05-19T10:14:27Z</time>
      </trkpt>
      <trkpt lat="44.46745" lon="5.59317">
        <ele>1704.07</ele>
        <time>2022-05-19T10:14:43Z</time>
      </trkpt>
      <trkpt lat="44.46744" lon="5.59324">
        <ele>1706</ele>
        <time>2022-05-19T10:15:16Z</time>
      </trkpt>
      <trkpt lat="44.46741" lon="5.5933">
        <ele>1706.96</ele>
        <time>2022-05-19T10:15:46Z</time>
      </trkpt>
      <trkpt lat="44.46735" lon="5.59334">
        <ele>1708.4</ele>
        <time>2022-05-19T10:16:01Z</time>
      </trkpt>
      <trkpt lat="44.46734" lon="5.59335">
        <ele>1708.4</ele>
        <time>2022-05-19T10:16:19Z</time>
      </trkpt>
      <trkpt lat="44.46732" lon="5.5934">
        <ele>1708.88</ele>
        <time>2022-05-19T10:16:31Z</time>
      </trkpt>
      <trkpt lat="44.46729" lon="5.59341">
        <ele>1709.84</ele>
        <time>2022-05-19T10:16:48Z</time>
      </trkpt>
      <trkpt lat="44.46724" lon="5.59349">
        <ele>1706.48</ele>
        <time>2022-05-19T11:18:04Z</time>
      </trkpt>
      <trkpt lat="44.46723" lon="5.59359">
        <ele>1707.44</ele>
        <time>2022-05-19T11:18:18Z</time>
      </trkpt>
      <trkpt lat="44.46723" lon="5.59371">
        <ele>1707.92</ele>
        <time>2022-05-19T11:18:32Z</time>
      </trkpt>
      <trkpt lat="44.4672" lon="5.59379">
        <ele>1710.32</ele>
        <time>2022-05-19T11:18:50Z</time>
      </trkpt>
      <trkpt lat="44.46716" lon="5.59388">
        <ele>1712.73</ele>
        <time>2022-05-19T11:19:05Z</time>
      </trkpt>
      <trkpt lat="44.46713" lon="5.59399">
        <ele>1714.17</ele>
        <time>2022-05-19T11:19:22Z</time>
      </trkpt>
      <trkpt lat="44.46711" lon="5.59407">
        <ele>1715.13</ele>
        <time>2022-05-19T11:19:37Z</time>
      </trkpt>
      <trkpt lat="44.46708" lon="5.59415">
        <ele>1715.13</ele>
        <time>2022-05-19T11:19:52Z</time>
      </trkpt>
      <trkpt lat="44.46705" lon="5.59419">
        <ele>1715.61</ele>
        <time>2022-05-19T11:20:07Z</time>
      </trkpt>
      <trkpt lat="44.46702" lon="5.59423">
        <ele>1717.53</ele>
        <time>2022-05-19T11:20:20Z</time>
      </trkpt>
      <trkpt lat="44.46701" lon="5.59431">
        <ele>1718.01</ele>
        <time>2022-05-19T11:20:27Z</time>
      </trkpt>
      <trkpt lat="44.46695" lon="5.5945">
        <ele>1720.9</ele>
        <time>2022-05-19T11:20:42Z</time>
      </trkpt>
      <trkpt lat="44.46688" lon="5.59468">
        <ele>1718.97</ele>
        <time>2022-05-19T11:20:59Z</time>
      </trkpt>
      <trkpt lat="44.46678" lon="5.59485">
        <ele>1717.53</ele>
        <time>2022-05-19T11:21:15Z</time>
      </trkpt>
      <trkpt lat="44.46674" lon="5.59495">
        <ele>1718.97</ele>
        <time>2022-05-19T11:21:26Z</time>
      </trkpt>
      <trkpt lat="44.46669" lon="5.59505">
        <ele>1720.9</ele>
        <time>2022-05-19T11:21:39Z</time>
      </trkpt>
      <trkpt lat="44.46668" lon="5.59507">
        <ele>1721.38</ele>
        <time>2022-05-19T11:21:41Z</time>
      </trkpt>
      <trkpt lat="44.46666" lon="5.59518">
        <ele>1721.86</ele>
        <time>2022-05-19T11:21:59Z</time>
      </trkpt>
      <trkpt lat="44.46665" lon="5.5952">
        <ele>1720.42</ele>
        <time>2022-05-19T11:22:09Z</time>
      </trkpt>
      <trkpt lat="44.46665" lon="5.59522">
        <ele>1720.42</ele>
        <time>2022-05-19T11:22:11Z</time>
      </trkpt>
      <trkpt lat="44.46666" lon="5.59527">
        <ele>1720.42</ele>
        <time>2022-05-19T11:22:15Z</time>
      </trkpt>
      <trkpt lat="44.46661" lon="5.59551">
        <ele>1719.46</ele>
        <time>2022-05-19T11:22:32Z</time>
      </trkpt>
      <trkpt lat="44.4666" lon="5.5957">
        <ele>1718.97</ele>
        <time>2022-05-19T11:22:46Z</time>
      </trkpt>
      <trkpt lat="44.46658" lon="5.59588">
        <ele>1718.97</ele>
        <time>2022-05-19T11:23:01Z</time>
      </trkpt>
      <trkpt lat="44.46659" lon="5.596">
        <ele>1721.38</ele>
        <time>2022-05-19T11:23:14Z</time>
      </trkpt>
      <trkpt lat="44.46658" lon="5.5961">
        <ele>1720.42</ele>
        <time>2022-05-19T11:23:22Z</time>
      </trkpt>
      <trkpt lat="44.46656" lon="5.59633">
        <ele>1719.94</ele>
        <time>2022-05-19T11:23:38Z</time>
      </trkpt>
      <trkpt lat="44.46655" lon="5.59649">
        <ele>1719.94</ele>
        <time>2022-05-19T11:23:52Z</time>
      </trkpt>
      <trkpt lat="44.46657" lon="5.59666">
        <ele>1722.82</ele>
        <time>2022-05-19T11:24:08Z</time>
      </trkpt>
      <trkpt lat="44.4666" lon="5.59683">
        <ele>1725.22</ele>
        <time>2022-05-19T11:24:24Z</time>
      </trkpt>
      <trkpt lat="44.46663" lon="5.597">
        <ele>1727.15</ele>
        <time>2022-05-19T11:24:40Z</time>
      </trkpt>
      <trkpt lat="44.46663" lon="5.59702">
        <ele>1727.15</ele>
        <time>2022-05-19T11:24:43Z</time>
      </trkpt>
      <trkpt lat="44.46659" lon="5.59723">
        <ele>1728.59</ele>
        <time>2022-05-19T11:25:00Z</time>
      </trkpt>
      <trkpt lat="44.46656" lon="5.59738">
        <ele>1730.03</ele>
        <time>2022-05-19T11:25:14Z</time>
      </trkpt>
      <trkpt lat="44.4665" lon="5.59764">
        <ele>1729.07</ele>
        <time>2022-05-19T11:25:32Z</time>
      </trkpt>
      <trkpt lat="44.46648" lon="5.59788">
        <ele>1728.59</ele>
        <time>2022-05-19T11:25:49Z</time>
      </trkpt>
      <trkpt lat="44.46647" lon="5.59793">
        <ele>1730.03</ele>
        <time>2022-05-19T11:25:52Z</time>
      </trkpt>
      <trkpt lat="44.46644" lon="5.59812">
        <ele>1728.59</ele>
        <time>2022-05-19T11:26:05Z</time>
      </trkpt>
      <trkpt lat="44.46638" lon="5.59838">
        <ele>1727.63</ele>
        <time>2022-05-19T11:26:23Z</time>
      </trkpt>
      <trkpt lat="44.46633" lon="5.59863">
        <ele>1728.11</ele>
        <time>2022-05-19T11:26:40Z</time>
      </trkpt>
      <trkpt lat="44.46631" lon="5.5989">
        <ele>1728.11</ele>
        <time>2022-05-19T11:26:58Z</time>
      </trkpt>
      <trkpt lat="44.4663" lon="5.59896">
        <ele>1729.55</ele>
        <time>2022-05-19T11:27:02Z</time>
      </trkpt>
      <trkpt lat="44.4663" lon="5.59899">
        <ele>1728.11</ele>
        <time>2022-05-19T11:27:04Z</time>
      </trkpt>
      <trkpt lat="44.46627" lon="5.59926">
        <ele>1726.67</ele>
        <time>2022-05-19T11:27:21Z</time>
      </trkpt>
      <trkpt lat="44.46622" lon="5.59954">
        <ele>1726.18</ele>
        <time>2022-05-19T11:27:41Z</time>
      </trkpt>
      <trkpt lat="44.46617" lon="5.59976">
        <ele>1727.63</ele>
        <time>2022-05-19T11:27:57Z</time>
      </trkpt>
      <trkpt lat="44.46617" lon="5.5997">
        <ele>1726.67</ele>
        <time>2022-05-19T11:28:09Z</time>
      </trkpt>
      <trkpt lat="44.46614" lon="5.5998">
        <ele>1728.11</ele>
        <time>2022-05-19T11:28:21Z</time>
      </trkpt>
      <trkpt lat="44.46614" lon="5.59981">
        <ele>1728.11</ele>
        <time>2022-05-19T11:28:22Z</time>
      </trkpt>
      <trkpt lat="44.46612" lon="5.5999">
        <ele>1729.55</ele>
        <time>2022-05-19T11:28:29Z</time>
      </trkpt>
      <trkpt lat="44.46607" lon="5.60003">
        <ele>1730.51</ele>
        <time>2022-05-19T11:28:43Z</time>
      </trkpt>
      <trkpt lat="44.46603" lon="5.6002">
        <ele>1731.95</ele>
        <time>2022-05-19T11:28:58Z</time>
      </trkpt>
      <trkpt lat="44.46601" lon="5.6003">
        <ele>1733.39</ele>
        <time>2022-05-19T11:29:11Z</time>
      </trkpt>
      <trkpt lat="44.46597" lon="5.60046">
        <ele>1735.32</ele>
        <time>2022-05-19T11:29:26Z</time>
      </trkpt>
      <trkpt lat="44.46595" lon="5.6006">
        <ele>1735.8</ele>
        <time>2022-05-19T11:29:39Z</time>
      </trkpt>
      <trkpt lat="44.46591" lon="5.60077">
        <ele>1737.72</ele>
        <time>2022-05-19T11:29:52Z</time>
      </trkpt>
      <trkpt lat="44.46589" lon="5.60097">
        <ele>1740.6</ele>
        <time>2022-05-19T11:30:08Z</time>
      </trkpt>
      <trkpt lat="44.46586" lon="5.60117">
        <ele>1742.05</ele>
        <time>2022-05-19T11:30:23Z</time>
      </trkpt>
      <trkpt lat="44.46585" lon="5.60121">
        <ele>1743.49</ele>
        <time>2022-05-19T11:30:26Z</time>
      </trkpt>
      <trkpt lat="44.46584" lon="5.60125">
        <ele>1742.05</ele>
        <time>2022-05-19T11:30:29Z</time>
      </trkpt>
      <trkpt lat="44.46581" lon="5.60147">
        <ele>1742.05</ele>
        <time>2022-05-19T11:30:45Z</time>
      </trkpt>
      <trkpt lat="44.46578" lon="5.60161">
        <ele>1743.01</ele>
        <time>2022-05-19T11:30:56Z</time>
      </trkpt>
      <trkpt lat="44.46577" lon="5.60165">
        <ele>1741.57</ele>
        <time>2022-05-19T11:30:59Z</time>
      </trkpt>
      <trkpt lat="44.46575" lon="5.60175">
        <ele>1743.01</ele>
        <time>2022-05-19T11:31:06Z</time>
      </trkpt>
      <trkpt lat="44.46573" lon="5.60196">
        <ele>1745.41</ele>
        <time>2022-05-19T11:31:22Z</time>
      </trkpt>
      <trkpt lat="44.46573" lon="5.60201">
        <ele>1746.85</ele>
        <time>2022-05-19T11:31:26Z</time>
      </trkpt>
      <trkpt lat="44.46571" lon="5.60215">
        <ele>1746.85</ele>
        <time>2022-05-19T11:31:35Z</time>
      </trkpt>
      <trkpt lat="44.4657" lon="5.60222">
        <ele>1746.85</ele>
        <time>2022-05-19T11:31:40Z</time>
      </trkpt>
      <trkpt lat="44.46568" lon="5.60234">
        <ele>1748.29</ele>
        <time>2022-05-19T11:31:49Z</time>
      </trkpt>
      <trkpt lat="44.46566" lon="5.60256">
        <ele>1749.26</ele>
        <time>2022-05-19T11:32:05Z</time>
      </trkpt>
      <trkpt lat="44.46563" lon="5.60275">
        <ele>1750.22</ele>
        <time>2022-05-19T11:32:20Z</time>
      </trkpt>
      <trkpt lat="44.46562" lon="5.60296">
        <ele>1750.22</ele>
        <time>2022-05-19T11:32:35Z</time>
      </trkpt>
      <trkpt lat="44.4656" lon="5.60316">
        <ele>1750.22</ele>
        <time>2022-05-19T11:32:50Z</time>
      </trkpt>
      <trkpt lat="44.46558" lon="5.6032">
        <ele>1749.74</ele>
        <time>2022-05-19T11:32:58Z</time>
      </trkpt>
      <trkpt lat="44.46558" lon="5.60319">
        <ele>1751.66</ele>
        <time>2022-05-19T11:33:01Z</time>
      </trkpt>
      <trkpt lat="44.46558" lon="5.60331">
        <ele>1750.7</ele>
        <time>2022-05-19T11:33:14Z</time>
      </trkpt>
      <trkpt lat="44.46557" lon="5.60335">
        <ele>1752.14</ele>
        <time>2022-05-19T11:33:19Z</time>
      </trkpt>
      <trkpt lat="44.46558" lon="5.60351">
        <ele>1752.14</ele>
        <time>2022-05-19T11:33:34Z</time>
      </trkpt>
      <trkpt lat="44.46558" lon="5.60355">
        <ele>1751.66</ele>
        <time>2022-05-19T11:33:48Z</time>
      </trkpt>
      <trkpt lat="44.46558" lon="5.60361">
        <ele>1752.62</ele>
        <time>2022-05-19T11:35:58Z</time>
      </trkpt>
      <trkpt lat="44.46558" lon="5.60363">
        <ele>1751.18</ele>
        <time>2022-05-19T11:36:01Z</time>
      </trkpt>
      <trkpt lat="44.46556" lon="5.60379">
        <ele>1748.78</ele>
        <time>2022-05-19T11:36:17Z</time>
      </trkpt>
      <trkpt lat="44.46556" lon="5.60383">
        <ele>1748.78</ele>
        <time>2022-05-19T11:36:29Z</time>
      </trkpt>
      <trkpt lat="44.46554" lon="5.60398">
        <ele>1745.89</ele>
        <time>2022-05-19T11:36:45Z</time>
      </trkpt>
      <trkpt lat="44.46554" lon="5.60415">
        <ele>1742.53</ele>
        <time>2022-05-19T11:37:03Z</time>
      </trkpt>
      <trkpt lat="44.46552" lon="5.60427">
        <ele>1740.12</ele>
        <time>2022-05-19T11:37:19Z</time>
      </trkpt>
      <trkpt lat="44.46549" lon="5.60437">
        <ele>1737.24</ele>
        <time>2022-05-19T11:37:34Z</time>
      </trkpt>
      <trkpt lat="44.46551" lon="5.60442">
        <ele>1734.36</ele>
        <time>2022-05-19T11:37:49Z</time>
      </trkpt>
      <trkpt lat="44.4656" lon="5.60446">
        <ele>1731.47</ele>
        <time>2022-05-19T11:38:05Z</time>
      </trkpt>
      <trkpt lat="44.46563" lon="5.60449">
        <ele>1730.03</ele>
        <time>2022-05-19T11:38:22Z</time>
      </trkpt>
      <trkpt lat="44.46571" lon="5.6045">
        <ele>1727.15</ele>
        <time>2022-05-19T11:38:38Z</time>
      </trkpt>
      <trkpt lat="44.46577" lon="5.6045">
        <ele>1724.74</ele>
        <time>2022-05-19T11:38:53Z</time>
      </trkpt>
      <trkpt lat="44.46583" lon="5.60449">
        <ele>1721.86</ele>
        <time>2022-05-19T11:39:07Z</time>
      </trkpt>
      <trkpt lat="44.46588" lon="5.60448">
        <ele>1719.46</ele>
        <time>2022-05-19T11:39:22Z</time>
      </trkpt>
      <trkpt lat="44.46592" lon="5.60448">
        <ele>1717.53</ele>
        <time>2022-05-19T11:39:36Z</time>
      </trkpt>
      <trkpt lat="44.46599" lon="5.60446">
        <ele>1715.13</ele>
        <time>2022-05-19T11:39:52Z</time>
      </trkpt>
      <trkpt lat="44.46602" lon="5.60447">
        <ele>1713.69</ele>
        <time>2022-05-19T11:40:04Z</time>
      </trkpt>
      <trkpt lat="44.46608" lon="5.60449">
        <ele>1712.25</ele>
        <time>2022-05-19T11:40:20Z</time>
      </trkpt>
      <trkpt lat="44.46611" lon="5.60459">
        <ele>1708.88</ele>
        <time>2022-05-19T11:40:36Z</time>
      </trkpt>
      <trkpt lat="44.46617" lon="5.60464">
        <ele>1706.48</ele>
        <time>2022-05-19T11:40:49Z</time>
      </trkpt>
      <trkpt lat="44.46618" lon="5.60466">
        <ele>1706</ele>
        <time>2022-05-19T11:41:54Z</time>
      </trkpt>
      <trkpt lat="44.4662" lon="5.60468">
        <ele>1705.52</ele>
        <time>2022-05-19T11:42:06Z</time>
      </trkpt>
      <trkpt lat="44.46626" lon="5.60472">
        <ele>1700.71</ele>
        <time>2022-05-19T11:43:59Z</time>
      </trkpt>
      <trkpt lat="44.46632" lon="5.60477">
        <ele>1699.75</ele>
        <time>2022-05-19T11:44:15Z</time>
      </trkpt>
      <trkpt lat="44.46636" lon="5.60481">
        <ele>1697.83</ele>
        <time>2022-05-19T11:44:32Z</time>
      </trkpt>
      <trkpt lat="44.46636" lon="5.60483">
        <ele>1698.31</ele>
        <time>2022-05-19T11:45:02Z</time>
      </trkpt>
      <trkpt lat="44.46638" lon="5.60484">
        <ele>1696.86</ele>
        <time>2022-05-19T11:45:07Z</time>
      </trkpt>
      <trkpt lat="44.46645" lon="5.60489">
        <ele>1693.98</ele>
        <time>2022-05-19T11:45:19Z</time>
      </trkpt>
      <trkpt lat="44.46656" lon="5.60493">
        <ele>1690.62</ele>
        <time>2022-05-19T11:45:35Z</time>
      </trkpt>
      <trkpt lat="44.46658" lon="5.60496">
        <ele>1690.14</ele>
        <time>2022-05-19T11:45:57Z</time>
      </trkpt>
      <trkpt lat="44.46664" lon="5.60504">
        <ele>1689.17</ele>
        <time>2022-05-19T11:48:51Z</time>
      </trkpt>
      <trkpt lat="44.46665" lon="5.60505">
        <ele>1688.69</ele>
        <time>2022-05-19T11:48:54Z</time>
      </trkpt>
      <trkpt lat="44.46679" lon="5.60519">
        <ele>1686.29</ele>
        <time>2022-05-19T11:49:09Z</time>
      </trkpt>
      <trkpt lat="44.46694" lon="5.60535">
        <ele>1686.77</ele>
        <time>2022-05-19T11:49:26Z</time>
      </trkpt>
      <trkpt lat="44.46705" lon="5.60546">
        <ele>1689.17</ele>
        <time>2022-05-19T11:49:41Z</time>
      </trkpt>
      <trkpt lat="44.46712" lon="5.60552">
        <ele>1691.58</ele>
        <time>2022-05-19T11:49:56Z</time>
      </trkpt>
      <trkpt lat="44.4672" lon="5.60556">
        <ele>1694.46</ele>
        <time>2022-05-19T11:50:12Z</time>
      </trkpt>
      <trkpt lat="44.46727" lon="5.6056">
        <ele>1696.86</ele>
        <time>2022-05-19T11:50:30Z</time>
      </trkpt>
      <trkpt lat="44.46736" lon="5.60564">
        <ele>1699.75</ele>
        <time>2022-05-19T11:50:47Z</time>
      </trkpt>
      <trkpt lat="44.46744" lon="5.60567">
        <ele>1702.63</ele>
        <time>2022-05-19T11:51:06Z</time>
      </trkpt>
      <trkpt lat="44.46754" lon="5.60569">
        <ele>1705.52</ele>
        <time>2022-05-19T11:51:22Z</time>
      </trkpt>
      <trkpt lat="44.46759" lon="5.6057">
        <ele>1707.44</ele>
        <time>2022-05-19T11:51:37Z</time>
      </trkpt>
      <trkpt lat="44.46769" lon="5.60574">
        <ele>1710.32</ele>
        <time>2022-05-19T11:51:57Z</time>
      </trkpt>
      <trkpt lat="44.46777" lon="5.60578">
        <ele>1712.73</ele>
        <time>2022-05-19T11:52:14Z</time>
      </trkpt>
      <trkpt lat="44.46787" lon="5.60582">
        <ele>1715.61</ele>
        <time>2022-05-19T11:52:30Z</time>
      </trkpt>
      <trkpt lat="44.46795" lon="5.60584">
        <ele>1717.53</ele>
        <time>2022-05-19T11:52:44Z</time>
      </trkpt>
      <trkpt lat="44.46806" lon="5.60591">
        <ele>1719.94</ele>
        <time>2022-05-19T11:53:01Z</time>
      </trkpt>
      <trkpt lat="44.46804" lon="5.60598">
        <ele>1722.82</ele>
        <time>2022-05-19T11:53:11Z</time>
      </trkpt>
      <trkpt lat="44.46803" lon="5.60599">
        <ele>1723.78</ele>
        <time>2022-05-19T11:53:13Z</time>
      </trkpt>
      <trkpt lat="44.468" lon="5.60604">
        <ele>1723.3</ele>
        <time>2022-05-19T11:53:23Z</time>
      </trkpt>
      <trkpt lat="44.46798" lon="5.60607">
        <ele>1722.82</ele>
        <time>2022-05-19T11:53:26Z</time>
      </trkpt>
      <trkpt lat="44.46786" lon="5.60618">
        <ele>1725.22</ele>
        <time>2022-05-19T11:53:45Z</time>
      </trkpt>
      <trkpt lat="44.46785" lon="5.6062">
        <ele>1724.74</ele>
        <time>2022-05-19T11:53:59Z</time>
      </trkpt>
      <trkpt lat="44.46784" lon="5.60621">
        <ele>1725.22</ele>
        <time>2022-05-19T11:55:28Z</time>
      </trkpt>
      <trkpt lat="44.46787" lon="5.6062">
        <ele>1726.18</ele>
        <time>2022-05-19T11:55:50Z</time>
      </trkpt>
      <trkpt lat="44.46789" lon="5.6062">
        <ele>1724.74</ele>
        <time>2022-05-19T11:55:53Z</time>
      </trkpt>
      <trkpt lat="44.46793" lon="5.60623">
        <ele>1724.26</ele>
        <time>2022-05-19T11:56:08Z</time>
      </trkpt>
      <trkpt lat="44.46799" lon="5.6063">
        <ele>1724.26</ele>
        <time>2022-05-19T11:56:23Z</time>
      </trkpt>
      <trkpt lat="44.46805" lon="5.60641">
        <ele>1721.38</ele>
        <time>2022-05-19T11:56:38Z</time>
      </trkpt>
      <trkpt lat="44.46806" lon="5.60644">
        <ele>1720.42</ele>
        <time>2022-05-19T11:56:50Z</time>
      </trkpt>
      <trkpt lat="44.46809" lon="5.60646">
        <ele>1719.46</ele>
        <time>2022-05-19T11:57:02Z</time>
      </trkpt>
      <trkpt lat="44.46813" lon="5.60653">
        <ele>1718.49</ele>
        <time>2022-05-19T11:57:17Z</time>
      </trkpt>
      <trkpt lat="44.46816" lon="5.60667">
        <ele>1717.53</ele>
        <time>2022-05-19T11:57:34Z</time>
      </trkpt>
      <trkpt lat="44.46817" lon="5.6067">
        <ele>1717.05</ele>
        <time>2022-05-19T11:57:39Z</time>
      </trkpt>
      <trkpt lat="44.46819" lon="5.60683">
        <ele>1715.13</ele>
        <time>2022-05-19T11:57:55Z</time>
      </trkpt>
      <trkpt lat="44.4682" lon="5.60694">
        <ele>1711.28</ele>
        <time>2022-05-19T11:58:10Z</time>
      </trkpt>
      <trkpt lat="44.46823" lon="5.60707">
        <ele>1707.92</ele>
        <time>2022-05-19T11:58:25Z</time>
      </trkpt>
      <trkpt lat="44.46824" lon="5.60723">
        <ele>1705.52</ele>
        <time>2022-05-19T11:58:42Z</time>
      </trkpt>
      <trkpt lat="44.46824" lon="5.60738">
        <ele>1706.96</ele>
        <time>2022-05-19T11:58:59Z</time>
      </trkpt>
      <trkpt lat="44.46825" lon="5.60741">
        <ele>1705.04</ele>
        <time>2022-05-19T11:59:02Z</time>
      </trkpt>
      <trkpt lat="44.46825" lon="5.60745">
        <ele>1703.59</ele>
        <time>2022-05-19T11:59:05Z</time>
      </trkpt>
      <trkpt lat="44.46826" lon="5.6075">
        <ele>1703.11</ele>
        <time>2022-05-19T11:59:10Z</time>
      </trkpt>
      <trkpt lat="44.46827" lon="5.6077">
        <ele>1701.19</ele>
        <time>2022-05-19T11:59:27Z</time>
      </trkpt>
      <trkpt lat="44.46828" lon="5.60775">
        <ele>1702.15</ele>
        <time>2022-05-19T11:59:31Z</time>
      </trkpt>
      <trkpt lat="44.46828" lon="5.60788">
        <ele>1698.31</ele>
        <time>2022-05-19T11:59:41Z</time>
      </trkpt>
      <trkpt lat="44.46829" lon="5.60789">
        <ele>1698.31</ele>
        <time>2022-05-19T11:59:42Z</time>
      </trkpt>
      <trkpt lat="44.4683" lon="5.60797">
        <ele>1695.9</ele>
        <time>2022-05-19T11:59:49Z</time>
      </trkpt>
      <trkpt lat="44.46832" lon="5.60803">
        <ele>1696.38</ele>
        <time>2022-05-19T11:59:58Z</time>
      </trkpt>
      <trkpt lat="44.46832" lon="5.60802">
        <ele>1694.46</ele>
        <time>2022-05-19T12:00:01Z</time>
      </trkpt>
      <trkpt lat="44.46832" lon="5.60802">
        <ele>1695.42</ele>
        <time>2022-05-19T12:00:04Z</time>
      </trkpt>
      <trkpt lat="44.46835" lon="5.60815">
        <ele>1693.02</ele>
        <time>2022-05-19T12:00:25Z</time>
      </trkpt>
      <trkpt lat="44.46839" lon="5.6083">
        <ele>1690.14</ele>
        <time>2022-05-19T12:00:37Z</time>
      </trkpt>
      <trkpt lat="44.4684" lon="5.60837">
        <ele>1689.65</ele>
        <time>2022-05-19T12:00:43Z</time>
      </trkpt>
      <trkpt lat="44.46841" lon="5.6084">
        <ele>1687.25</ele>
        <time>2022-05-19T12:00:55Z</time>
      </trkpt>
      <trkpt lat="44.46842" lon="5.60846">
        <ele>1687.73</ele>
        <time>2022-05-19T12:01:50Z</time>
      </trkpt>
      <trkpt lat="44.46845" lon="5.6086">
        <ele>1685.81</ele>
        <time>2022-05-19T12:02:05Z</time>
      </trkpt>
      <trkpt lat="44.4685" lon="5.60877">
        <ele>1682.44</ele>
        <time>2022-05-19T12:02:21Z</time>
      </trkpt>
      <trkpt lat="44.46852" lon="5.60886">
        <ele>1681</ele>
        <time>2022-05-19T12:02:27Z</time>
      </trkpt>
      <trkpt lat="44.46853" lon="5.60891">
        <ele>1680.04</ele>
        <time>2022-05-19T12:02:31Z</time>
      </trkpt>
      <trkpt lat="44.46856" lon="5.60908">
        <ele>1675.72</ele>
        <time>2022-05-19T12:02:44Z</time>
      </trkpt>
      <trkpt lat="44.46857" lon="5.60912">
        <ele>1675.23</ele>
        <time>2022-05-19T12:02:47Z</time>
      </trkpt>
      <trkpt lat="44.46862" lon="5.60937">
        <ele>1671.87</ele>
        <time>2022-05-19T12:03:05Z</time>
      </trkpt>
      <trkpt lat="44.46866" lon="5.60958">
        <ele>1671.39</ele>
        <time>2022-05-19T12:03:18Z</time>
      </trkpt>
      <trkpt lat="44.46867" lon="5.60965">
        <ele>1670.43</ele>
        <time>2022-05-19T12:03:22Z</time>
      </trkpt>
      <trkpt lat="44.46869" lon="5.60974">
        <ele>1668.51</ele>
        <time>2022-05-19T12:03:35Z</time>
      </trkpt>
      <trkpt lat="44.46872" lon="5.60986">
        <ele>1667.06</ele>
        <time>2022-05-19T12:06:07Z</time>
      </trkpt>
      <trkpt lat="44.46875" lon="5.60998">
        <ele>1664.66</ele>
        <time>2022-05-19T12:06:21Z</time>
      </trkpt>
      <trkpt lat="44.46878" lon="5.61017">
        <ele>1662.26</ele>
        <time>2022-05-19T12:06:37Z</time>
      </trkpt>
      <trkpt lat="44.4688" lon="5.61023">
        <ele>1661.3</ele>
        <time>2022-05-19T12:06:43Z</time>
      </trkpt>
      <trkpt lat="44.46885" lon="5.61037">
        <ele>1657.45</ele>
        <time>2022-05-19T12:06:57Z</time>
      </trkpt>
      <trkpt lat="44.46889" lon="5.61044">
        <ele>1655.53</ele>
        <time>2022-05-19T12:07:11Z</time>
      </trkpt>
      <trkpt lat="44.46895" lon="5.61043">
        <ele>1652.64</ele>
        <time>2022-05-19T12:07:21Z</time>
      </trkpt>
      <trkpt lat="44.469" lon="5.61048">
        <ele>1649.28</ele>
        <time>2022-05-19T12:07:31Z</time>
      </trkpt>
      <trkpt lat="44.46906" lon="5.61056">
        <ele>1646.88</ele>
        <time>2022-05-19T12:07:44Z</time>
      </trkpt>
      <trkpt lat="44.46913" lon="5.61062">
        <ele>1644.47</ele>
        <time>2022-05-19T12:08:00Z</time>
      </trkpt>
      <trkpt lat="44.46918" lon="5.61065">
        <ele>1643.03</ele>
        <time>2022-05-19T12:08:14Z</time>
      </trkpt>
      <trkpt lat="44.46919" lon="5.61065">
        <ele>1642.07</ele>
        <time>2022-05-19T12:08:39Z</time>
      </trkpt>
      <trkpt lat="44.46923" lon="5.61069">
        <ele>1641.59</ele>
        <time>2022-05-19T12:09:03Z</time>
      </trkpt>
      <trkpt lat="44.46923" lon="5.61069">
        <ele>1641.59</ele>
        <time>2022-05-19T12:09:30Z</time>
      </trkpt>
      <trkpt lat="44.46922" lon="5.61074">
        <ele>1641.11</ele>
        <time>2022-05-19T12:09:53Z</time>
      </trkpt>
      <trkpt lat="44.46927" lon="5.6109">
        <ele>1639.67</ele>
        <time>2022-05-19T12:10:11Z</time>
      </trkpt>
      <trkpt lat="44.46929" lon="5.61099">
        <ele>1637.74</ele>
        <time>2022-05-19T12:10:21Z</time>
      </trkpt>
      <trkpt lat="44.46932" lon="5.61109">
        <ele>1636.78</ele>
        <time>2022-05-19T12:10:38Z</time>
      </trkpt>
      <trkpt lat="44.46935" lon="5.6112">
        <ele>1636.78</ele>
        <time>2022-05-19T12:10:52Z</time>
      </trkpt>
      <trkpt lat="44.46936" lon="5.61126">
        <ele>1635.34</ele>
        <time>2022-05-19T12:10:58Z</time>
      </trkpt>
      <trkpt lat="44.46937" lon="5.6113">
        <ele>1632.46</ele>
        <time>2022-05-19T12:11:06Z</time>
      </trkpt>
      <trkpt lat="44.46946" lon="5.61141">
        <ele>1628.61</ele>
        <time>2022-05-19T12:13:06Z</time>
      </trkpt>
      <trkpt lat="44.46955" lon="5.61148">
        <ele>1626.21</ele>
        <time>2022-05-19T12:13:17Z</time>
      </trkpt>
      <trkpt lat="44.46964" lon="5.61157">
        <ele>1624.28</ele>
        <time>2022-05-19T12:13:27Z</time>
      </trkpt>
      <trkpt lat="44.4697" lon="5.6116">
        <ele>1621.88</ele>
        <time>2022-05-19T12:13:40Z</time>
      </trkpt>
      <trkpt lat="44.46972" lon="5.61163">
        <ele>1621.88</ele>
        <time>2022-05-19T12:13:47Z</time>
      </trkpt>
      <trkpt lat="44.46979" lon="5.61177">
        <ele>1619</ele>
        <time>2022-05-19T12:14:00Z</time>
      </trkpt>
      <trkpt lat="44.46988" lon="5.61181">
        <ele>1617.07</ele>
        <time>2022-05-19T12:14:15Z</time>
      </trkpt>
      <trkpt lat="44.46996" lon="5.61171">
        <ele>1613.71</ele>
        <time>2022-05-19T12:14:30Z</time>
      </trkpt>
      <trkpt lat="44.46998" lon="5.6117">
        <ele>1612.27</ele>
        <time>2022-05-19T12:14:34Z</time>
      </trkpt>
      <trkpt lat="44.47006" lon="5.61163">
        <ele>1608.9</ele>
        <time>2022-05-19T12:14:46Z</time>
      </trkpt>
      <trkpt lat="44.4701" lon="5.6116">
        <ele>1606.98</ele>
        <time>2022-05-19T12:14:54Z</time>
      </trkpt>
      <trkpt lat="44.47015" lon="5.61158">
        <ele>1603.62</ele>
        <time>2022-05-19T12:15:03Z</time>
      </trkpt>
      <trkpt lat="44.47022" lon="5.61164">
        <ele>1600.25</ele>
        <time>2022-05-19T12:15:17Z</time>
      </trkpt>
      <trkpt lat="44.47027" lon="5.6117">
        <ele>1597.37</ele>
        <time>2022-05-19T12:15:29Z</time>
      </trkpt>
      <trkpt lat="44.47028" lon="5.61171">
        <ele>1597.37</ele>
        <time>2022-05-19T12:15:48Z</time>
      </trkpt>
      <trkpt lat="44.4703" lon="5.61172">
        <ele>1596.89</ele>
        <time>2022-05-19T12:16:10Z</time>
      </trkpt>
      <trkpt lat="44.4703" lon="5.61171">
        <ele>1597.85</ele>
        <time>2022-05-19T12:16:35Z</time>
      </trkpt>
      <trkpt lat="44.47033" lon="5.61169">
        <ele>1594.96</ele>
        <time>2022-05-19T12:16:44Z</time>
      </trkpt>
      <trkpt lat="44.47037" lon="5.6117">
        <ele>1591.6</ele>
        <time>2022-05-19T12:16:54Z</time>
      </trkpt>
      <trkpt lat="44.4704" lon="5.61176">
        <ele>1589.68</ele>
        <time>2022-05-19T12:17:07Z</time>
      </trkpt>
      <trkpt lat="44.47042" lon="5.6118">
        <ele>1587.75</ele>
        <time>2022-05-19T12:17:18Z</time>
      </trkpt>
      <trkpt lat="44.47042" lon="5.61181">
        <ele>1586.79</ele>
        <time>2022-05-19T12:17:33Z</time>
      </trkpt>
      <trkpt lat="44.47048" lon="5.61183">
        <ele>1583.91</ele>
        <time>2022-05-19T12:17:46Z</time>
      </trkpt>
      <trkpt lat="44.47051" lon="5.61192">
        <ele>1581.51</ele>
        <time>2022-05-19T12:18:00Z</time>
      </trkpt>
      <trkpt lat="44.47053" lon="5.61196">
        <ele>1579.58</ele>
        <time>2022-05-19T12:21:01Z</time>
      </trkpt>
      <trkpt lat="44.47058" lon="5.61195">
        <ele>1578.62</ele>
        <time>2022-05-19T12:21:13Z</time>
      </trkpt>
      <trkpt lat="44.47063" lon="5.61199">
        <ele>1576.22</ele>
        <time>2022-05-19T12:21:22Z</time>
      </trkpt>
      <trkpt lat="44.47069" lon="5.61212">
        <ele>1571.41</ele>
        <time>2022-05-19T12:21:37Z</time>
      </trkpt>
      <trkpt lat="44.4707" lon="5.61214">
        <ele>1570.93</ele>
        <time>2022-05-19T12:21:39Z</time>
      </trkpt>
      <trkpt lat="44.47071" lon="5.61217">
        <ele>1569.49</ele>
        <time>2022-05-19T12:21:43Z</time>
      </trkpt>
      <trkpt lat="44.47076" lon="5.61228">
        <ele>1566.12</ele>
        <time>2022-05-19T12:21:54Z</time>
      </trkpt>
      <trkpt lat="44.47077" lon="5.61229">
        <ele>1566.12</ele>
        <time>2022-05-19T12:21:55Z</time>
      </trkpt>
      <trkpt lat="44.47083" lon="5.61242">
        <ele>1562.76</ele>
        <time>2022-05-19T12:22:08Z</time>
      </trkpt>
      <trkpt lat="44.4709" lon="5.61261">
        <ele>1559.88</ele>
        <time>2022-05-19T12:22:24Z</time>
      </trkpt>
      <trkpt lat="44.47097" lon="5.61279">
        <ele>1556.99</ele>
        <time>2022-05-19T12:22:40Z</time>
      </trkpt>
      <trkpt lat="44.47102" lon="5.61294">
        <ele>1555.07</ele>
        <time>2022-05-19T12:22:58Z</time>
      </trkpt>
      <trkpt lat="44.47106" lon="5.61308">
        <ele>1554.11</ele>
        <time>2022-05-19T12:23:15Z</time>
      </trkpt>
      <trkpt lat="44.47107" lon="5.61315">
        <ele>1555.55</ele>
        <time>2022-05-19T12:23:23Z</time>
      </trkpt>
      <trkpt lat="44.47111" lon="5.61324">
        <ele>1551.71</ele>
        <time>2022-05-19T12:24:12Z</time>
      </trkpt>
      <trkpt lat="44.47113" lon="5.61337">
        <ele>1551.71</ele>
        <time>2022-05-19T12:24:27Z</time>
      </trkpt>
      <trkpt lat="44.47114" lon="5.61338">
        <ele>1544.98</ele>
        <time>2022-05-19T12:28:04Z</time>
      </trkpt>
      <trkpt lat="44.47118" lon="5.61347">
        <ele>1544.98</ele>
        <time>2022-05-19T12:28:21Z</time>
      </trkpt>
      <trkpt lat="44.47121" lon="5.61353">
        <ele>1543.53</ele>
        <time>2022-05-19T12:28:28Z</time>
      </trkpt>
      <trkpt lat="44.47122" lon="5.61355">
        <ele>1543.53</ele>
        <time>2022-05-19T12:28:30Z</time>
      </trkpt>
      <trkpt lat="44.47126" lon="5.61366">
        <ele>1543.05</ele>
        <time>2022-05-19T12:28:39Z</time>
      </trkpt>
      <trkpt lat="44.4714" lon="5.61383">
        <ele>1542.09</ele>
        <time>2022-05-19T12:28:55Z</time>
      </trkpt>
      <trkpt lat="44.47148" lon="5.614">
        <ele>1541.13</ele>
        <time>2022-05-19T12:29:05Z</time>
      </trkpt>
      <trkpt lat="44.47157" lon="5.61426">
        <ele>1539.69</ele>
        <time>2022-05-19T12:29:21Z</time>
      </trkpt>
      <trkpt lat="44.4717" lon="5.61452">
        <ele>1536.32</ele>
        <time>2022-05-19T12:29:38Z</time>
      </trkpt>
      <trkpt lat="44.4717" lon="5.61453">
        <ele>1536.32</ele>
        <time>2022-05-19T12:29:39Z</time>
      </trkpt>
      <trkpt lat="44.47175" lon="5.61467">
        <ele>1534.4</ele>
        <time>2022-05-19T12:29:49Z</time>
      </trkpt>
      <trkpt lat="44.47186" lon="5.6149">
        <ele>1531.52</ele>
        <time>2022-05-19T12:30:05Z</time>
      </trkpt>
      <trkpt lat="44.47192" lon="5.61504">
        <ele>1530.56</ele>
        <time>2022-05-19T12:30:14Z</time>
      </trkpt>
      <trkpt lat="44.47194" lon="5.61511">
        <ele>1529.59</ele>
        <time>2022-05-19T12:30:19Z</time>
      </trkpt>
      <trkpt lat="44.47209" lon="5.6153">
        <ele>1527.67</ele>
        <time>2022-05-19T12:30:36Z</time>
      </trkpt>
      <trkpt lat="44.47224" lon="5.6155">
        <ele>1526.71</ele>
        <time>2022-05-19T12:30:54Z</time>
      </trkpt>
      <trkpt lat="44.4724" lon="5.61572">
        <ele>1525.75</ele>
        <time>2022-05-19T12:31:12Z</time>
      </trkpt>
      <trkpt lat="44.4725" lon="5.61587">
        <ele>1524.79</ele>
        <time>2022-05-19T12:31:27Z</time>
      </trkpt>
      <trkpt lat="44.47256" lon="5.61595">
        <ele>1524.31</ele>
        <time>2022-05-19T12:31:35Z</time>
      </trkpt>
      <trkpt lat="44.4726" lon="5.61598">
        <ele>1523.83</ele>
        <time>2022-05-19T12:31:39Z</time>
      </trkpt>
      <trkpt lat="44.47276" lon="5.61619">
        <ele>1522.87</ele>
        <time>2022-05-19T12:31:58Z</time>
      </trkpt>
      <trkpt lat="44.47288" lon="5.61634">
        <ele>1522.39</ele>
        <time>2022-05-19T12:32:12Z</time>
      </trkpt>
      <trkpt lat="44.47303" lon="5.61655">
        <ele>1523.35</ele>
        <time>2022-05-19T12:32:30Z</time>
      </trkpt>
      <trkpt lat="44.47314" lon="5.61664">
        <ele>1524.79</ele>
        <time>2022-05-19T12:32:42Z</time>
      </trkpt>
      <trkpt lat="44.47328" lon="5.61676">
        <ele>1526.23</ele>
        <time>2022-05-19T12:32:57Z</time>
      </trkpt>
      <trkpt lat="44.47338" lon="5.61686">
        <ele>1527.19</ele>
        <time>2022-05-19T12:33:09Z</time>
      </trkpt>
      <trkpt lat="44.47339" lon="5.61687">
        <ele>1527.67</ele>
        <time>2022-05-19T12:33:11Z</time>
      </trkpt>
      <trkpt lat="44.47344" lon="5.6169">
        <ele>1528.63</ele>
        <time>2022-05-19T12:33:18Z</time>
      </trkpt>
      <trkpt lat="44.47346" lon="5.61692">
        <ele>1529.11</ele>
        <time>2022-05-19T12:33:22Z</time>
      </trkpt>
      <trkpt lat="44.47358" lon="5.617">
        <ele>1531.52</ele>
        <time>2022-05-19T12:33:35Z</time>
      </trkpt>
      <trkpt lat="44.47371" lon="5.61706">
        <ele>1531.04</ele>
        <time>2022-05-19T12:33:50Z</time>
      </trkpt>
      <trkpt lat="44.47383" lon="5.61713">
        <ele>1532.48</ele>
        <time>2022-05-19T12:34:04Z</time>
      </trkpt>
      <trkpt lat="44.47396" lon="5.61719">
        <ele>1533.44</ele>
        <time>2022-05-19T12:34:19Z</time>
      </trkpt>
      <trkpt lat="44.47402" lon="5.61723">
        <ele>1533.44</ele>
        <time>2022-05-19T12:34:27Z</time>
      </trkpt>
      <trkpt lat="44.47415" lon="5.61733">
        <ele>1535.84</ele>
        <time>2022-05-19T12:34:43Z</time>
      </trkpt>
      <trkpt lat="44.47424" lon="5.61738">
        <ele>1537.29</ele>
        <time>2022-05-19T12:34:56Z</time>
      </trkpt>
      <trkpt lat="44.47436" lon="5.61742">
        <ele>1538.25</ele>
        <time>2022-05-19T12:35:09Z</time>
      </trkpt>
      <trkpt lat="44.47447" lon="5.61745">
        <ele>1540.65</ele>
        <time>2022-05-19T12:35:22Z</time>
      </trkpt>
      <trkpt lat="44.47456" lon="5.61751">
        <ele>1540.65</ele>
        <time>2022-05-19T12:35:34Z</time>
      </trkpt>
      <trkpt lat="44.47455" lon="5.61749">
        <ele>1539.69</ele>
        <time>2022-05-19T12:35:54Z</time>
      </trkpt>
      <trkpt lat="44.47453" lon="5.61749">
        <ele>1538.73</ele>
        <time>2022-05-19T12:36:22Z</time>
      </trkpt>
      <trkpt lat="44.47454" lon="5.61749">
        <ele>1538.73</ele>
        <time>2022-05-19T12:36:51Z</time>
      </trkpt>
      <trkpt lat="44.47461" lon="5.61752">
        <ele>1540.17</ele>
        <time>2022-05-19T12:37:00Z</time>
      </trkpt>
      <trkpt lat="44.47474" lon="5.61757">
        <ele>1541.61</ele>
        <time>2022-05-19T12:37:13Z</time>
      </trkpt>
      <trkpt lat="44.47485" lon="5.61766">
        <ele>1542.57</ele>
        <time>2022-05-19T12:37:25Z</time>
      </trkpt>
      <trkpt lat="44.47498" lon="5.61776">
        <ele>1545.46</ele>
        <time>2022-05-19T12:37:40Z</time>
      </trkpt>
      <trkpt lat="44.47508" lon="5.61782">
        <ele>1547.38</ele>
        <time>2022-05-19T12:37:53Z</time>
      </trkpt>
      <trkpt lat="44.47522" lon="5.61787">
        <ele>1549.3</ele>
        <time>2022-05-19T12:38:07Z</time>
      </trkpt>
      <trkpt lat="44.47531" lon="5.61792">
        <ele>1550.26</ele>
        <time>2022-05-19T12:38:18Z</time>
      </trkpt>
      <trkpt lat="44.47538" lon="5.61799">
        <ele>1550.74</ele>
        <time>2022-05-19T12:38:32Z</time>
      </trkpt>
      <trkpt lat="44.47539" lon="5.61801">
        <ele>1551.22</ele>
        <time>2022-05-19T12:38:34Z</time>
      </trkpt>
      <trkpt lat="44.47549" lon="5.61813">
        <ele>1552.19</ele>
        <time>2022-05-19T12:38:49Z</time>
      </trkpt>
      <trkpt lat="44.47553" lon="5.61816">
        <ele>1552.19</ele>
        <time>2022-05-19T12:38:53Z</time>
      </trkpt>
      <trkpt lat="44.47561" lon="5.61821">
        <ele>1552.67</ele>
        <time>2022-05-19T12:39:02Z</time>
      </trkpt>
      <trkpt lat="44.47575" lon="5.61828">
        <ele>1554.11</ele>
        <time>2022-05-19T12:39:17Z</time>
      </trkpt>
      <trkpt lat="44.47588" lon="5.61835">
        <ele>1556.51</ele>
        <time>2022-05-19T12:39:33Z</time>
      </trkpt>
      <trkpt lat="44.476" lon="5.61839">
        <ele>1558.92</ele>
        <time>2022-05-19T12:39:48Z</time>
      </trkpt>
      <trkpt lat="44.4761" lon="5.61844">
        <ele>1560.84</ele>
        <time>2022-05-19T12:40:00Z</time>
      </trkpt>
      <trkpt lat="44.47618" lon="5.61846">
        <ele>1562.28</ele>
        <time>2022-05-19T12:40:14Z</time>
      </trkpt>
      <trkpt lat="44.4763" lon="5.61846">
        <ele>1564.2</ele>
        <time>2022-05-19T12:40:27Z</time>
      </trkpt>
      <trkpt lat="44.4764" lon="5.61849">
        <ele>1565.16</ele>
        <time>2022-05-19T12:40:39Z</time>
      </trkpt>
      <trkpt lat="44.47653" lon="5.61851">
        <ele>1566.12</ele>
        <time>2022-05-19T12:40:51Z</time>
      </trkpt>
      <trkpt lat="44.47661" lon="5.61854">
        <ele>1566.12</ele>
        <time>2022-05-19T12:40:59Z</time>
      </trkpt>
      <trkpt lat="44.47678" lon="5.61858">
        <ele>1565.16</ele>
        <time>2022-05-19T12:41:14Z</time>
      </trkpt>
      <trkpt lat="44.47693" lon="5.61869">
        <ele>1565.16</ele>
        <time>2022-05-19T12:41:28Z</time>
      </trkpt>
      <trkpt lat="44.47706" lon="5.61877">
        <ele>1565.16</ele>
        <time>2022-05-19T12:41:40Z</time>
      </trkpt>
      <trkpt lat="44.47724" lon="5.61887">
        <ele>1565.16</ele>
        <time>2022-05-19T12:41:56Z</time>
      </trkpt>
      <trkpt lat="44.47741" lon="5.61896">
        <ele>1565.16</ele>
        <time>2022-05-19T12:42:11Z</time>
      </trkpt>
      <trkpt lat="44.47758" lon="5.61905">
        <ele>1564.68</ele>
        <time>2022-05-19T12:42:26Z</time>
      </trkpt>
      <trkpt lat="44.47769" lon="5.61914">
        <ele>1567.09</ele>
        <time>2022-05-19T12:42:37Z</time>
      </trkpt>
      <trkpt lat="44.4778" lon="5.61922">
        <ele>1569.97</ele>
        <time>2022-05-19T12:42:50Z</time>
      </trkpt>
      <trkpt lat="44.47785" lon="5.61924">
        <ele>1570.45</ele>
        <time>2022-05-19T12:43:03Z</time>
      </trkpt>
      <trkpt lat="44.47791" lon="5.61926">
        <ele>1569.97</ele>
        <time>2022-05-19T12:43:15Z</time>
      </trkpt>
      <trkpt lat="44.47796" lon="5.61932">
        <ele>1569.01</ele>
        <time>2022-05-19T12:43:25Z</time>
      </trkpt>
      <trkpt lat="44.47812" lon="5.61943">
        <ele>1568.05</ele>
        <time>2022-05-19T12:43:42Z</time>
      </trkpt>
      <trkpt lat="44.47827" lon="5.61949">
        <ele>1568.05</ele>
        <time>2022-05-19T12:43:57Z</time>
      </trkpt>
      <trkpt lat="44.47839" lon="5.61955">
        <ele>1569.49</ele>
        <time>2022-05-19T12:44:11Z</time>
      </trkpt>
      <trkpt lat="44.47852" lon="5.61959">
        <ele>1570.45</ele>
        <time>2022-05-19T12:44:24Z</time>
      </trkpt>
      <trkpt lat="44.47867" lon="5.61966">
        <ele>1570.93</ele>
        <time>2022-05-19T12:44:40Z</time>
      </trkpt>
      <trkpt lat="44.47882" lon="5.61968">
        <ele>1571.89</ele>
        <time>2022-05-19T12:44:56Z</time>
      </trkpt>
      <trkpt lat="44.47892" lon="5.61972">
        <ele>1572.85</ele>
        <time>2022-05-19T12:45:08Z</time>
      </trkpt>
      <trkpt lat="44.47894" lon="5.61972">
        <ele>1572.85</ele>
        <time>2022-05-19T12:45:11Z</time>
      </trkpt>
      <trkpt lat="44.47909" lon="5.61972">
        <ele>1573.33</ele>
        <time>2022-05-19T12:45:26Z</time>
      </trkpt>
      <trkpt lat="44.47922" lon="5.61974">
        <ele>1574.3</ele>
        <time>2022-05-19T12:45:40Z</time>
      </trkpt>
      <trkpt lat="44.47934" lon="5.61977">
        <ele>1576.22</ele>
        <time>2022-05-19T12:45:54Z</time>
      </trkpt>
      <trkpt lat="44.47945" lon="5.61978">
        <ele>1578.14</ele>
        <time>2022-05-19T12:46:09Z</time>
      </trkpt>
      <trkpt lat="44.47954" lon="5.61982">
        <ele>1579.58</ele>
        <time>2022-05-19T12:46:21Z</time>
      </trkpt>
      <trkpt lat="44.47967" lon="5.61988">
        <ele>1581.03</ele>
        <time>2022-05-19T12:46:35Z</time>
      </trkpt>
      <trkpt lat="44.4798" lon="5.61996">
        <ele>1582.47</ele>
        <time>2022-05-19T12:46:50Z</time>
      </trkpt>
      <trkpt lat="44.47991" lon="5.62001">
        <ele>1584.39</ele>
        <time>2022-05-19T12:47:02Z</time>
      </trkpt>
      <trkpt lat="44.48001" lon="5.62006">
        <ele>1586.31</ele>
        <time>2022-05-19T12:47:14Z</time>
      </trkpt>
      <trkpt lat="44.48014" lon="5.62011">
        <ele>1587.75</ele>
        <time>2022-05-19T12:47:27Z</time>
      </trkpt>
      <trkpt lat="44.48014" lon="5.62012">
        <ele>1588.24</ele>
        <time>2022-05-19T12:47:28Z</time>
      </trkpt>
      <trkpt lat="44.48027" lon="5.62016">
        <ele>1589.2</ele>
        <time>2022-05-19T12:47:41Z</time>
      </trkpt>
      <trkpt lat="44.4804" lon="5.62019">
        <ele>1590.16</ele>
        <time>2022-05-19T12:47:54Z</time>
      </trkpt>
      <trkpt lat="44.48055" lon="5.62023">
        <ele>1590.64</ele>
        <time>2022-05-19T12:48:09Z</time>
      </trkpt>
      <trkpt lat="44.4807" lon="5.6203">
        <ele>1591.12</ele>
        <time>2022-05-19T12:48:25Z</time>
      </trkpt>
      <trkpt lat="44.48083" lon="5.62032">
        <ele>1591.6</ele>
        <time>2022-05-19T12:48:38Z</time>
      </trkpt>
      <trkpt lat="44.48095" lon="5.62036">
        <ele>1593.52</ele>
        <time>2022-05-19T12:48:52Z</time>
      </trkpt>
      <trkpt lat="44.48106" lon="5.6204">
        <ele>1596.89</ele>
        <time>2022-05-19T12:49:08Z</time>
      </trkpt>
      <trkpt lat="44.48115" lon="5.62043">
        <ele>1600.25</ele>
        <time>2022-05-19T12:49:24Z</time>
      </trkpt>
      <trkpt lat="44.48126" lon="5.62048">
        <ele>1603.14</ele>
        <time>2022-05-19T12:49:40Z</time>
      </trkpt>
      <trkpt lat="44.48137" lon="5.62051">
        <ele>1605.54</ele>
        <time>2022-05-19T12:49:59Z</time>
      </trkpt>
      <trkpt lat="44.48144" lon="5.62051">
        <ele>1607.46</ele>
        <time>2022-05-19T12:50:14Z</time>
      </trkpt>
      <trkpt lat="44.4815" lon="5.62054">
        <ele>1610.35</ele>
        <time>2022-05-19T12:50:29Z</time>
      </trkpt>
      <trkpt lat="44.48154" lon="5.62059">
        <ele>1611.79</ele>
        <time>2022-05-19T12:50:45Z</time>
      </trkpt>
      <trkpt lat="44.48153" lon="5.62063">
        <ele>1612.75</ele>
        <time>2022-05-19T12:51:00Z</time>
      </trkpt>
      <trkpt lat="44.48154" lon="5.62065">
        <ele>1612.75</ele>
        <time>2022-05-19T12:51:26Z</time>
      </trkpt>
      <trkpt lat="44.48158" lon="5.62071">
        <ele>1614.67</ele>
        <time>2022-05-19T12:51:43Z</time>
      </trkpt>
      <trkpt lat="44.4816" lon="5.62077">
        <ele>1616.59</ele>
        <time>2022-05-19T12:52:01Z</time>
      </trkpt>
      <trkpt lat="44.48167" lon="5.62081">
        <ele>1617.56</ele>
        <time>2022-05-19T12:52:13Z</time>
      </trkpt>
      <trkpt lat="44.48177" lon="5.62086">
        <ele>1618.04</ele>
        <time>2022-05-19T12:52:27Z</time>
      </trkpt>
      <trkpt lat="44.48188" lon="5.62092">
        <ele>1619</ele>
        <time>2022-05-19T12:52:41Z</time>
      </trkpt>
      <trkpt lat="44.48198" lon="5.62101">
        <ele>1619.96</ele>
        <time>2022-05-19T12:52:56Z</time>
      </trkpt>
      <trkpt lat="44.48205" lon="5.62106">
        <ele>1620.92</ele>
        <time>2022-05-19T12:53:10Z</time>
      </trkpt>
      <trkpt lat="44.48209" lon="5.62109">
        <ele>1621.4</ele>
        <time>2022-05-19T12:53:25Z</time>
      </trkpt>
      <trkpt lat="44.48211" lon="5.62109">
        <ele>1622.36</ele>
        <time>2022-05-19T12:53:45Z</time>
      </trkpt>
      <trkpt lat="44.48211" lon="5.6211">
        <ele>1622.36</ele>
        <time>2022-05-19T12:54:00Z</time>
      </trkpt>
      <trkpt lat="44.48213" lon="5.62111">
        <ele>1622.36</ele>
        <time>2022-05-19T12:54:15Z</time>
      </trkpt>
      <trkpt lat="44.48219" lon="5.62112">
        <ele>1620.44</ele>
        <time>2022-05-19T12:54:43Z</time>
      </trkpt>
      <trkpt lat="44.48227" lon="5.62121">
        <ele>1617.56</ele>
        <time>2022-05-19T12:54:54Z</time>
      </trkpt>
      <trkpt lat="44.4823" lon="5.62122">
        <ele>1616.11</ele>
        <time>2022-05-19T12:55:09Z</time>
      </trkpt>
      <trkpt lat="44.48238" lon="5.62129">
        <ele>1617.56</ele>
        <time>2022-05-19T12:55:25Z</time>
      </trkpt>
      <trkpt lat="44.48244" lon="5.62131">
        <ele>1618.04</ele>
        <time>2022-05-19T12:55:30Z</time>
      </trkpt>
      <trkpt lat="44.48246" lon="5.62134">
        <ele>1618.04</ele>
        <time>2022-05-19T12:55:34Z</time>
      </trkpt>
      <trkpt lat="44.48257" lon="5.62143">
        <ele>1615.15</ele>
        <time>2022-05-19T12:55:48Z</time>
      </trkpt>
      <trkpt lat="44.48258" lon="5.62143">
        <ele>1613.71</ele>
        <time>2022-05-19T12:56:02Z</time>
      </trkpt>
      <trkpt lat="44.48263" lon="5.62148">
        <ele>1613.23</ele>
        <time>2022-05-19T12:56:20Z</time>
      </trkpt>
      <trkpt lat="44.48271" lon="5.62157">
        <ele>1615.15</ele>
        <time>2022-05-19T12:56:31Z</time>
      </trkpt>
      <trkpt lat="44.48281" lon="5.62166">
        <ele>1616.11</ele>
        <time>2022-05-19T12:56:44Z</time>
      </trkpt>
      <trkpt lat="44.48292" lon="5.62178">
        <ele>1616.59</ele>
        <time>2022-05-19T12:56:58Z</time>
      </trkpt>
      <trkpt lat="44.48301" lon="5.62193">
        <ele>1616.59</ele>
        <time>2022-05-19T12:57:13Z</time>
      </trkpt>
      <trkpt lat="44.48301" lon="5.62195">
        <ele>1616.59</ele>
        <time>2022-05-19T12:57:14Z</time>
      </trkpt>
      <trkpt lat="44.48305" lon="5.62199">
        <ele>1617.07</ele>
        <time>2022-05-19T12:57:30Z</time>
      </trkpt>
      <trkpt lat="44.48304" lon="5.62199">
        <ele>1617.07</ele>
        <time>2022-05-19T12:57:54Z</time>
      </trkpt>
      <trkpt lat="44.48307" lon="5.62203">
        <ele>1617.07</ele>
        <time>2022-05-19T12:58:13Z</time>
      </trkpt>
      <trkpt lat="44.48308" lon="5.62211">
        <ele>1618.04</ele>
        <time>2022-05-19T12:58:30Z</time>
      </trkpt>
      <trkpt lat="44.48308" lon="5.62212">
        <ele>1618.52</ele>
        <time>2022-05-19T12:58:59Z</time>
      </trkpt>
      <trkpt lat="44.48311" lon="5.62216">
        <ele>1617.56</ele>
        <time>2022-05-19T12:59:18Z</time>
      </trkpt>
      <trkpt lat="44.48314" lon="5.62222">
        <ele>1619</ele>
        <time>2022-05-19T12:59:26Z</time>
      </trkpt>
      <trkpt lat="44.48315" lon="5.62224">
        <ele>1617.56</ele>
        <time>2022-05-19T12:59:43Z</time>
      </trkpt>
      <trkpt lat="44.48313" lon="5.62223">
        <ele>1617.56</ele>
        <time>2022-05-19T12:59:59Z</time>
      </trkpt>
      <trkpt lat="44.48313" lon="5.62219">
        <ele>1617.56</ele>
        <time>2022-05-19T13:00:04Z</time>
      </trkpt>
      <trkpt lat="44.48312" lon="5.62217">
        <ele>1617.56</ele>
        <time>2022-05-19T13:00:15Z</time>
      </trkpt>
      <trkpt lat="44.4831" lon="5.62215">
        <ele>1619</ele>
        <time>2022-05-19T13:00:28Z</time>
      </trkpt>
      <trkpt lat="44.48309" lon="5.62215">
        <ele>1617.56</ele>
        <time>2022-05-19T13:01:04Z</time>
      </trkpt>
      <trkpt lat="44.4831" lon="5.62212">
        <ele>1617.56</ele>
        <time>2022-05-19T13:01:21Z</time>
      </trkpt>
      <trkpt lat="44.48309" lon="5.62209">
        <ele>1617.56</ele>
        <time>2022-05-19T13:01:37Z</time>
      </trkpt>
      <trkpt lat="44.48309" lon="5.62206">
        <ele>1617.07</ele>
        <time>2022-05-19T13:02:03Z</time>
      </trkpt>
      <trkpt lat="44.48311" lon="5.62199">
        <ele>1614.67</ele>
        <time>2022-05-19T13:02:19Z</time>
      </trkpt>
      <trkpt lat="44.48311" lon="5.62185">
        <ele>1611.79</ele>
        <time>2022-05-19T13:02:36Z</time>
      </trkpt>
      <trkpt lat="44.48311" lon="5.62172">
        <ele>1608.42</ele>
        <time>2022-05-19T13:02:50Z</time>
      </trkpt>
      <trkpt lat="44.48311" lon="5.62152">
        <ele>1605.54</ele>
        <time>2022-05-19T13:03:08Z</time>
      </trkpt>
      <trkpt lat="44.48312" lon="5.62136">
        <ele>1603.14</ele>
        <time>2022-05-19T13:03:26Z</time>
      </trkpt>
      <trkpt lat="44.48315" lon="5.62123">
        <ele>1601.21</ele>
        <time>2022-05-19T13:03:41Z</time>
      </trkpt>
      <trkpt lat="44.48315" lon="5.6212">
        <ele>1600.73</ele>
        <time>2022-05-19T13:03:44Z</time>
      </trkpt>
      <trkpt lat="44.48315" lon="5.62113">
        <ele>1598.33</ele>
        <time>2022-05-19T13:03:49Z</time>
      </trkpt>
      <trkpt lat="44.48317" lon="5.62104">
        <ele>1594.96</ele>
        <time>2022-05-19T13:03:58Z</time>
      </trkpt>
      <trkpt lat="44.48319" lon="5.6209">
        <ele>1591.6</ele>
        <time>2022-05-19T13:04:11Z</time>
      </trkpt>
      <trkpt lat="44.48321" lon="5.62075">
        <ele>1587.75</ele>
        <time>2022-05-19T13:04:26Z</time>
      </trkpt>
      <trkpt lat="44.48323" lon="5.62058">
        <ele>1584.39</ele>
        <time>2022-05-19T13:04:41Z</time>
      </trkpt>
      <trkpt lat="44.48324" lon="5.62058">
        <ele>1584.39</ele>
        <time>2022-05-19T13:04:42Z</time>
      </trkpt>
      <trkpt lat="44.48326" lon="5.62047">
        <ele>1581.03</ele>
        <time>2022-05-19T13:04:53Z</time>
      </trkpt>
      <trkpt lat="44.48329" lon="5.62032">
        <ele>1578.14</ele>
        <time>2022-05-19T13:05:05Z</time>
      </trkpt>
      <trkpt lat="44.4833" lon="5.62018">
        <ele>1574.3</ele>
        <time>2022-05-19T13:05:17Z</time>
      </trkpt>
      <trkpt lat="44.48333" lon="5.62004">
        <ele>1570.93</ele>
        <time>2022-05-19T13:05:31Z</time>
      </trkpt>
      <trkpt lat="44.48338" lon="5.61993">
        <ele>1567.57</ele>
        <time>2022-05-19T13:05:47Z</time>
      </trkpt>
      <trkpt lat="44.48338" lon="5.61979">
        <ele>1564.2</ele>
        <time>2022-05-19T13:05:59Z</time>
      </trkpt>
      <trkpt lat="44.48339" lon="5.61963">
        <ele>1560.84</ele>
        <time>2022-05-19T13:06:12Z</time>
      </trkpt>
      <trkpt lat="44.4834" lon="5.61959">
        <ele>1559.88</ele>
        <time>2022-05-19T13:06:26Z</time>
      </trkpt>
      <trkpt lat="44.4834" lon="5.61947">
        <ele>1557.95</ele>
        <time>2022-05-19T13:06:41Z</time>
      </trkpt>
      <trkpt lat="44.48339" lon="5.61928">
        <ele>1556.03</ele>
        <time>2022-05-19T13:07:01Z</time>
      </trkpt>
      <trkpt lat="44.48342" lon="5.61914">
        <ele>1553.15</ele>
        <time>2022-05-19T13:07:18Z</time>
      </trkpt>
      <trkpt lat="44.48346" lon="5.61901">
        <ele>1549.78</ele>
        <time>2022-05-19T13:07:31Z</time>
      </trkpt>
      <trkpt lat="44.4835" lon="5.6189">
        <ele>1546.9</ele>
        <time>2022-05-19T13:07:44Z</time>
      </trkpt>
      <trkpt lat="44.48354" lon="5.6188">
        <ele>1543.05</ele>
        <time>2022-05-19T13:07:58Z</time>
      </trkpt>
      <trkpt lat="44.48359" lon="5.61871">
        <ele>1539.21</ele>
        <time>2022-05-19T13:08:11Z</time>
      </trkpt>
      <trkpt lat="44.48362" lon="5.61858">
        <ele>1535.84</ele>
        <time>2022-05-19T13:08:24Z</time>
      </trkpt>
      <trkpt lat="44.48363" lon="5.61842">
        <ele>1532.96</ele>
        <time>2022-05-19T13:08:39Z</time>
      </trkpt>
      <trkpt lat="44.48362" lon="5.61823">
        <ele>1530.08</ele>
        <time>2022-05-19T13:08:56Z</time>
      </trkpt>
      <trkpt lat="44.48364" lon="5.61809">
        <ele>1526.71</ele>
        <time>2022-05-19T13:09:09Z</time>
      </trkpt>
      <trkpt lat="44.48369" lon="5.61794">
        <ele>1523.35</ele>
        <time>2022-05-19T13:09:24Z</time>
      </trkpt>
      <trkpt lat="44.48372" lon="5.61787">
        <ele>1519.98</ele>
        <time>2022-05-19T13:09:35Z</time>
      </trkpt>
      <trkpt lat="44.48376" lon="5.61778">
        <ele>1516.62</ele>
        <time>2022-05-19T13:09:47Z</time>
      </trkpt>
      <trkpt lat="44.48376" lon="5.61777">
        <ele>1516.62</ele>
        <time>2022-05-19T13:09:48Z</time>
      </trkpt>
      <trkpt lat="44.48376" lon="5.61767">
        <ele>1513.25</ele>
        <time>2022-05-19T13:10:02Z</time>
      </trkpt>
      <trkpt lat="44.48377" lon="5.61765">
        <ele>1512.29</ele>
        <time>2022-05-19T13:10:23Z</time>
      </trkpt>
      <trkpt lat="44.48378" lon="5.61763">
        <ele>1510.85</ele>
        <time>2022-05-19T13:13:42Z</time>
      </trkpt>
      <trkpt lat="44.48376" lon="5.6176">
        <ele>1510.37</ele>
        <time>2022-05-19T13:14:00Z</time>
      </trkpt>
      <trkpt lat="44.48371" lon="5.61751">
        <ele>1507.48</ele>
        <time>2022-05-19T13:14:12Z</time>
      </trkpt>
      <trkpt lat="44.48368" lon="5.61742">
        <ele>1504.12</ele>
        <time>2022-05-19T13:14:22Z</time>
      </trkpt>
      <trkpt lat="44.48365" lon="5.61733">
        <ele>1500.76</ele>
        <time>2022-05-19T13:14:32Z</time>
      </trkpt>
      <trkpt lat="44.48363" lon="5.61723">
        <ele>1497.87</ele>
        <time>2022-05-19T13:14:47Z</time>
      </trkpt>
      <trkpt lat="44.4836" lon="5.61713">
        <ele>1494.99</ele>
        <time>2022-05-19T13:14:59Z</time>
      </trkpt>
      <trkpt lat="44.48358" lon="5.617">
        <ele>1491.62</ele>
        <time>2022-05-19T13:15:14Z</time>
      </trkpt>
      <trkpt lat="44.48363" lon="5.6169">
        <ele>1488.74</ele>
        <time>2022-05-19T13:15:27Z</time>
      </trkpt>
      <trkpt lat="44.48368" lon="5.61681">
        <ele>1485.37</ele>
        <time>2022-05-19T13:15:41Z</time>
      </trkpt>
      <trkpt lat="44.48367" lon="5.61671">
        <ele>1481.53</ele>
        <time>2022-05-19T13:15:53Z</time>
      </trkpt>
      <trkpt lat="44.48371" lon="5.61663">
        <ele>1479.13</ele>
        <time>2022-05-19T13:16:06Z</time>
      </trkpt>
      <trkpt lat="44.48372" lon="5.61654">
        <ele>1475.28</ele>
        <time>2022-05-19T13:16:18Z</time>
      </trkpt>
      <trkpt lat="44.48375" lon="5.61643">
        <ele>1472.4</ele>
        <time>2022-05-19T13:16:31Z</time>
      </trkpt>
      <trkpt lat="44.48374" lon="5.61634">
        <ele>1469.03</ele>
        <time>2022-05-19T13:16:41Z</time>
      </trkpt>
      <trkpt lat="44.48377" lon="5.61624">
        <ele>1466.15</ele>
        <time>2022-05-19T13:16:54Z</time>
      </trkpt>
      <trkpt lat="44.48381" lon="5.61616">
        <ele>1464.71</ele>
        <time>2022-05-19T13:17:09Z</time>
      </trkpt>
      <trkpt lat="44.48384" lon="5.61605">
        <ele>1461.34</ele>
        <time>2022-05-19T13:17:24Z</time>
      </trkpt>
      <trkpt lat="44.48389" lon="5.61592">
        <ele>1457.5</ele>
        <time>2022-05-19T13:17:38Z</time>
      </trkpt>
      <trkpt lat="44.48394" lon="5.61582">
        <ele>1454.13</ele>
        <time>2022-05-19T13:17:51Z</time>
      </trkpt>
      <trkpt lat="44.48395" lon="5.61579">
        <ele>1453.65</ele>
        <time>2022-05-19T13:17:54Z</time>
      </trkpt>
      <trkpt lat="44.48408" lon="5.61575">
        <ele>1452.21</ele>
        <time>2022-05-19T13:18:12Z</time>
      </trkpt>
      <trkpt lat="44.48412" lon="5.61576">
        <ele>1451.25</ele>
        <time>2022-05-19T13:18:50Z</time>
      </trkpt>
      <trkpt lat="44.4842" lon="5.61575">
        <ele>1450.77</ele>
        <time>2022-05-19T13:19:06Z</time>
      </trkpt>
      <trkpt lat="44.48419" lon="5.61569">
        <ele>1449.32</ele>
        <time>2022-05-19T13:19:19Z</time>
      </trkpt>
      <trkpt lat="44.48422" lon="5.61562">
        <ele>1447.4</ele>
        <time>2022-05-19T13:19:32Z</time>
      </trkpt>
      <trkpt lat="44.48415" lon="5.61559">
        <ele>1446.44</ele>
        <time>2022-05-19T13:20:14Z</time>
      </trkpt>
      <trkpt lat="44.48404" lon="5.6155">
        <ele>1444.04</ele>
        <time>2022-05-19T13:20:30Z</time>
      </trkpt>
      <trkpt lat="44.48393" lon="5.61541">
        <ele>1441.63</ele>
        <time>2022-05-19T13:20:45Z</time>
      </trkpt>
      <trkpt lat="44.48384" lon="5.61536">
        <ele>1439.23</ele>
        <time>2022-05-19T13:20:59Z</time>
      </trkpt>
      <trkpt lat="44.48373" lon="5.61527">
        <ele>1436.83</ele>
        <time>2022-05-19T13:21:15Z</time>
      </trkpt>
      <trkpt lat="44.48369" lon="5.61523">
        <ele>1435.39</ele>
        <time>2022-05-19T13:21:20Z</time>
      </trkpt>
      <trkpt lat="44.48356" lon="5.61513">
        <ele>1433.94</ele>
        <time>2022-05-19T13:21:36Z</time>
      </trkpt>
      <trkpt lat="44.48351" lon="5.61509">
        <ele>1433.46</ele>
        <time>2022-05-19T13:21:43Z</time>
      </trkpt>
      <trkpt lat="44.48337" lon="5.61495">
        <ele>1430.58</ele>
        <time>2022-05-19T13:21:59Z</time>
      </trkpt>
      <trkpt lat="44.48324" lon="5.61487">
        <ele>1428.66</ele>
        <time>2022-05-19T13:22:16Z</time>
      </trkpt>
      <trkpt lat="44.48318" lon="5.61483">
        <ele>1427.21</ele>
        <time>2022-05-19T13:22:28Z</time>
      </trkpt>
      <trkpt lat="44.48315" lon="5.61477">
        <ele>1424.81</ele>
        <time>2022-05-19T13:22:43Z</time>
      </trkpt>
      <trkpt lat="44.48312" lon="5.61466">
        <ele>1423.85</ele>
        <time>2022-05-19T13:23:00Z</time>
      </trkpt>
      <trkpt lat="44.483" lon="5.61447">
        <ele>1421.45</ele>
        <time>2022-05-19T13:23:19Z</time>
      </trkpt>
      <trkpt lat="44.48286" lon="5.6143">
        <ele>1421.45</ele>
        <time>2022-05-19T13:23:37Z</time>
      </trkpt>
      <trkpt lat="44.48278" lon="5.61422">
        <ele>1420.97</ele>
        <time>2022-05-19T13:23:46Z</time>
      </trkpt>
      <trkpt lat="44.48261" lon="5.61411">
        <ele>1420.97</ele>
        <time>2022-05-19T13:24:04Z</time>
      </trkpt>
      <trkpt lat="44.48248" lon="5.61404">
        <ele>1419.04</ele>
        <time>2022-05-19T13:24:21Z</time>
      </trkpt>
      <trkpt lat="44.48237" lon="5.61406">
        <ele>1417.12</ele>
        <time>2022-05-19T13:24:38Z</time>
      </trkpt>
      <trkpt lat="44.48224" lon="5.61413">
        <ele>1414.24</ele>
        <time>2022-05-19T13:24:54Z</time>
      </trkpt>
      <trkpt lat="44.48209" lon="5.61423">
        <ele>1414.24</ele>
        <time>2022-05-19T13:25:14Z</time>
      </trkpt>
      <trkpt lat="44.48207" lon="5.61423">
        <ele>1413.76</ele>
        <time>2022-05-19T13:25:27Z</time>
      </trkpt>
      <trkpt lat="44.48206" lon="5.61423">
        <ele>1413.76</ele>
        <time>2022-05-19T13:25:44Z</time>
      </trkpt>
      <trkpt lat="44.48201" lon="5.6142">
        <ele>1414.72</ele>
        <time>2022-05-19T13:25:54Z</time>
      </trkpt>
      <trkpt lat="44.48197" lon="5.61414">
        <ele>1415.68</ele>
        <time>2022-05-19T13:26:01Z</time>
      </trkpt>
      <trkpt lat="44.48187" lon="5.61404">
        <ele>1417.6</ele>
        <time>2022-05-19T13:26:15Z</time>
      </trkpt>
      <trkpt lat="44.48179" lon="5.61393">
        <ele>1420</ele>
        <time>2022-05-19T13:26:29Z</time>
      </trkpt>
      <trkpt lat="44.48168" lon="5.61382">
        <ele>1421.93</ele>
        <time>2022-05-19T13:26:47Z</time>
      </trkpt>
      <trkpt lat="44.48157" lon="5.6137">
        <ele>1424.33</ele>
        <time>2022-05-19T13:27:04Z</time>
      </trkpt>
      <trkpt lat="44.48147" lon="5.61358">
        <ele>1426.25</ele>
        <time>2022-05-19T13:27:18Z</time>
      </trkpt>
      <trkpt lat="44.48136" lon="5.61337">
        <ele>1426.25</ele>
        <time>2022-05-19T13:27:32Z</time>
      </trkpt>
      <trkpt lat="44.48125" lon="5.61324">
        <ele>1426.73</ele>
        <time>2022-05-19T13:27:43Z</time>
      </trkpt>
      <trkpt lat="44.48111" lon="5.61315">
        <ele>1428.66</ele>
        <time>2022-05-19T13:27:56Z</time>
      </trkpt>
      <trkpt lat="44.48094" lon="5.61306">
        <ele>1429.62</ele>
        <time>2022-05-19T13:28:11Z</time>
      </trkpt>
      <trkpt lat="44.48087" lon="5.61302">
        <ele>1429.62</ele>
        <time>2022-05-19T13:28:18Z</time>
      </trkpt>
      <trkpt lat="44.48073" lon="5.61297">
        <ele>1430.1</ele>
        <time>2022-05-19T13:28:33Z</time>
      </trkpt>
      <trkpt lat="44.4806" lon="5.61292">
        <ele>1430.1</ele>
        <time>2022-05-19T13:28:50Z</time>
      </trkpt>
      <trkpt lat="44.48049" lon="5.61287">
        <ele>1430.1</ele>
        <time>2022-05-19T13:29:04Z</time>
      </trkpt>
      <trkpt lat="44.48029" lon="5.61286">
        <ele>1430.1</ele>
        <time>2022-05-19T13:29:23Z</time>
      </trkpt>
      <trkpt lat="44.48017" lon="5.61289">
        <ele>1430.1</ele>
        <time>2022-05-19T13:29:37Z</time>
      </trkpt>
      <trkpt lat="44.48006" lon="5.61292">
        <ele>1430.1</ele>
        <time>2022-05-19T13:29:50Z</time>
      </trkpt>
      <trkpt lat="44.47999" lon="5.61293">
        <ele>1430.1</ele>
        <time>2022-05-19T13:29:58Z</time>
      </trkpt>
      <trkpt lat="44.47996" lon="5.61293">
        <ele>1428.66</ele>
        <time>2022-05-19T13:30:01Z</time>
      </trkpt>
      <trkpt lat="44.47991" lon="5.61294">
        <ele>1427.21</ele>
        <time>2022-05-19T13:30:14Z</time>
      </trkpt>
      <trkpt lat="44.47979" lon="5.61299">
        <ele>1426.25</ele>
        <time>2022-05-19T13:30:30Z</time>
      </trkpt>
      <trkpt lat="44.47973" lon="5.61304">
        <ele>1425.77</ele>
        <time>2022-05-19T13:30:36Z</time>
      </trkpt>
      <trkpt lat="44.47956" lon="5.61314">
        <ele>1423.85</ele>
        <time>2022-05-19T13:30:54Z</time>
      </trkpt>
      <trkpt lat="44.47954" lon="5.61316">
        <ele>1423.85</ele>
        <time>2022-05-19T13:31:16Z</time>
      </trkpt>
      <trkpt lat="44.47951" lon="5.61318">
        <ele>1423.85</ele>
        <time>2022-05-19T13:31:34Z</time>
      </trkpt>
      <trkpt lat="44.47944" lon="5.61325">
        <ele>1421.93</ele>
        <time>2022-05-19T13:34:35Z</time>
      </trkpt>
      <trkpt lat="44.47933" lon="5.6133">
        <ele>1418.56</ele>
        <time>2022-05-19T13:34:49Z</time>
      </trkpt>
      <trkpt lat="44.47917" lon="5.61338">
        <ele>1417.6</ele>
        <time>2022-05-19T13:35:01Z</time>
      </trkpt>
      <trkpt lat="44.47905" lon="5.61341">
        <ele>1415.2</ele>
        <time>2022-05-19T13:35:11Z</time>
      </trkpt>
      <trkpt lat="44.47891" lon="5.61347">
        <ele>1414.24</ele>
        <time>2022-05-19T13:35:25Z</time>
      </trkpt>
      <trkpt lat="44.47889" lon="5.61342">
        <ele>1414.24</ele>
        <time>2022-05-19T13:35:30Z</time>
      </trkpt>
      <trkpt lat="44.47877" lon="5.61317">
        <ele>1413.28</ele>
        <time>2022-05-19T13:35:48Z</time>
      </trkpt>
      <trkpt lat="44.47865" lon="5.61289">
        <ele>1410.39</ele>
        <time>2022-05-19T13:36:07Z</time>
      </trkpt>
      <trkpt lat="44.4786" lon="5.61278">
        <ele>1409.43</ele>
        <time>2022-05-19T13:36:16Z</time>
      </trkpt>
      <trkpt lat="44.47859" lon="5.6127">
        <ele>1408.95</ele>
        <time>2022-05-19T13:36:21Z</time>
      </trkpt>
      <trkpt lat="44.47853" lon="5.61247">
        <ele>1404.62</ele>
        <time>2022-05-19T13:36:35Z</time>
      </trkpt>
      <trkpt lat="44.47845" lon="5.61225">
        <ele>1401.26</ele>
        <time>2022-05-19T13:36:51Z</time>
      </trkpt>
      <trkpt lat="44.47835" lon="5.61204">
        <ele>1398.37</ele>
        <time>2022-05-19T13:37:07Z</time>
      </trkpt>
      <trkpt lat="44.47835" lon="5.61201">
        <ele>1398.37</ele>
        <time>2022-05-19T13:37:09Z</time>
      </trkpt>
      <trkpt lat="44.47831" lon="5.61186">
        <ele>1394.53</ele>
        <time>2022-05-19T13:37:21Z</time>
      </trkpt>
      <trkpt lat="44.47822" lon="5.61168">
        <ele>1391.65</ele>
        <time>2022-05-19T13:37:37Z</time>
      </trkpt>
      <trkpt lat="44.47816" lon="5.61153">
        <ele>1388.28</ele>
        <time>2022-05-19T13:37:52Z</time>
      </trkpt>
      <trkpt lat="44.47809" lon="5.61138">
        <ele>1385.4</ele>
        <time>2022-05-19T13:38:09Z</time>
      </trkpt>
      <trkpt lat="44.47804" lon="5.61126">
        <ele>1383.96</ele>
        <time>2022-05-19T13:38:21Z</time>
      </trkpt>
      <trkpt lat="44.47803" lon="5.61123">
        <ele>1382.99</ele>
        <time>2022-05-19T13:38:23Z</time>
      </trkpt>
      <trkpt lat="44.47804" lon="5.61098">
        <ele>1383.47</ele>
        <time>2022-05-19T13:38:38Z</time>
      </trkpt>
      <trkpt lat="44.47809" lon="5.61083">
        <ele>1385.88</ele>
        <time>2022-05-19T13:38:54Z</time>
      </trkpt>
      <trkpt lat="44.47812" lon="5.61082">
        <ele>1386.84</ele>
        <time>2022-05-19T13:38:58Z</time>
      </trkpt>
      <trkpt lat="44.47822" lon="5.61076">
        <ele>1387.8</ele>
        <time>2022-05-19T13:39:11Z</time>
      </trkpt>
      <trkpt lat="44.47837" lon="5.61078">
        <ele>1386.36</ele>
        <time>2022-05-19T13:39:30Z</time>
      </trkpt>
      <trkpt lat="44.47849" lon="5.61078">
        <ele>1386.36</ele>
        <time>2022-05-19T13:39:49Z</time>
      </trkpt>
      <trkpt lat="44.47867" lon="5.61071">
        <ele>1384.92</ele>
        <time>2022-05-19T13:40:06Z</time>
      </trkpt>
      <trkpt lat="44.47882" lon="5.61064">
        <ele>1382.51</ele>
        <time>2022-05-19T13:40:22Z</time>
      </trkpt>
      <trkpt lat="44.4789" lon="5.61058">
        <ele>1381.07</ele>
        <time>2022-05-19T13:40:31Z</time>
      </trkpt>
      <trkpt lat="44.47906" lon="5.61045">
        <ele>1379.15</ele>
        <time>2022-05-19T13:40:48Z</time>
      </trkpt>
      <trkpt lat="44.4792" lon="5.61031">
        <ele>1376.75</ele>
        <time>2022-05-19T13:41:05Z</time>
      </trkpt>
      <trkpt lat="44.47927" lon="5.61023">
        <ele>1375.78</ele>
        <time>2022-05-19T13:41:13Z</time>
      </trkpt>
      <trkpt lat="44.47937" lon="5.61012">
        <ele>1374.82</ele>
        <time>2022-05-19T13:41:28Z</time>
      </trkpt>
      <trkpt lat="44.47943" lon="5.61003">
        <ele>1375.3</ele>
        <time>2022-05-19T13:42:13Z</time>
      </trkpt>
      <trkpt lat="44.47955" lon="5.6099">
        <ele>1373.38</ele>
        <time>2022-05-19T13:42:27Z</time>
      </trkpt>
      <trkpt lat="44.47973" lon="5.60972">
        <ele>1372.42</ele>
        <time>2022-05-19T13:42:43Z</time>
      </trkpt>
      <trkpt lat="44.47988" lon="5.60958">
        <ele>1370.98</ele>
        <time>2022-05-19T13:42:58Z</time>
      </trkpt>
      <trkpt lat="44.48001" lon="5.60945">
        <ele>1370.5</ele>
        <time>2022-05-19T13:43:12Z</time>
      </trkpt>
      <trkpt lat="44.48014" lon="5.60931">
        <ele>1369.54</ele>
        <time>2022-05-19T13:43:28Z</time>
      </trkpt>
      <trkpt lat="44.48025" lon="5.60919">
        <ele>1369.05</ele>
        <time>2022-05-19T13:43:41Z</time>
      </trkpt>
      <trkpt lat="44.48039" lon="5.60899">
        <ele>1368.09</ele>
        <time>2022-05-19T13:43:57Z</time>
      </trkpt>
      <trkpt lat="44.48046" lon="5.60889">
        <ele>1367.13</ele>
        <time>2022-05-19T13:44:10Z</time>
      </trkpt>
      <trkpt lat="44.48058" lon="5.60867">
        <ele>1364.73</ele>
        <time>2022-05-19T13:44:27Z</time>
      </trkpt>
      <trkpt lat="44.48064" lon="5.6084">
        <ele>1363.29</ele>
        <time>2022-05-19T13:44:43Z</time>
      </trkpt>
      <trkpt lat="44.48065" lon="5.60823">
        <ele>1360.4</ele>
        <time>2022-05-19T13:45:02Z</time>
      </trkpt>
      <trkpt lat="44.48067" lon="5.60809">
        <ele>1359.44</ele>
        <time>2022-05-19T13:45:16Z</time>
      </trkpt>
      <trkpt lat="44.48072" lon="5.60787">
        <ele>1356.08</ele>
        <time>2022-05-19T13:45:31Z</time>
      </trkpt>
      <trkpt lat="44.48075" lon="5.60765">
        <ele>1353.19</ele>
        <time>2022-05-19T13:45:45Z</time>
      </trkpt>
      <trkpt lat="44.4808" lon="5.60743">
        <ele>1350.31</ele>
        <time>2022-05-19T13:46:00Z</time>
      </trkpt>
      <trkpt lat="44.48084" lon="5.60725">
        <ele>1346.94</ele>
        <time>2022-05-19T13:46:12Z</time>
      </trkpt>
      <trkpt lat="44.48086" lon="5.60703">
        <ele>1344.06</ele>
        <time>2022-05-19T13:46:28Z</time>
      </trkpt>
      <trkpt lat="44.48088" lon="5.60688">
        <ele>1341.18</ele>
        <time>2022-05-19T13:46:41Z</time>
      </trkpt>
      <trkpt lat="44.48089" lon="5.60671">
        <ele>1339.25</ele>
        <time>2022-05-19T13:46:56Z</time>
      </trkpt>
      <trkpt lat="44.4809" lon="5.60658">
        <ele>1335.89</ele>
        <time>2022-05-19T13:47:10Z</time>
      </trkpt>
      <trkpt lat="44.4809" lon="5.60644">
        <ele>1333.01</ele>
        <time>2022-05-19T13:47:23Z</time>
      </trkpt>
      <trkpt lat="44.4809" lon="5.60627">
        <ele>1330.12</ele>
        <time>2022-05-19T13:47:39Z</time>
      </trkpt>
      <trkpt lat="44.48084" lon="5.60609">
        <ele>1326.76</ele>
        <time>2022-05-19T13:47:54Z</time>
      </trkpt>
      <trkpt lat="44.48077" lon="5.60598">
        <ele>1326.28</ele>
        <time>2022-05-19T13:48:11Z</time>
      </trkpt>
      <trkpt lat="44.48076" lon="5.60593">
        <ele>1326.28</ele>
        <time>2022-05-19T13:48:25Z</time>
      </trkpt>
      <trkpt lat="44.48071" lon="5.60578">
        <ele>1324.35</ele>
        <time>2022-05-19T13:48:40Z</time>
      </trkpt>
      <trkpt lat="44.48067" lon="5.60563">
        <ele>1322.43</ele>
        <time>2022-05-19T13:48:54Z</time>
      </trkpt>
      <trkpt lat="44.48064" lon="5.60555">
        <ele>1321.95</ele>
        <time>2022-05-19T13:49:02Z</time>
      </trkpt>
      <trkpt lat="44.48057" lon="5.60535">
        <ele>1320.03</ele>
        <time>2022-05-19T13:49:17Z</time>
      </trkpt>
      <trkpt lat="44.48052" lon="5.60523">
        <ele>1318.59</ele>
        <time>2022-05-19T13:49:32Z</time>
      </trkpt>
      <trkpt lat="44.48059" lon="5.60519">
        <ele>1317.62</ele>
        <time>2022-05-19T13:50:32Z</time>
      </trkpt>
      <trkpt lat="44.48068" lon="5.60502">
        <ele>1313.78</ele>
        <time>2022-05-19T13:50:45Z</time>
      </trkpt>
      <trkpt lat="44.48073" lon="5.6049">
        <ele>1311.38</ele>
        <time>2022-05-19T13:50:53Z</time>
      </trkpt>
      <trkpt lat="44.48077" lon="5.60483">
        <ele>1309.45</ele>
        <time>2022-05-19T13:51:09Z</time>
      </trkpt>
      <trkpt lat="44.48079" lon="5.60473">
        <ele>1309.45</ele>
        <time>2022-05-19T13:51:20Z</time>
      </trkpt>
      <trkpt lat="44.48088" lon="5.6046">
        <ele>1308.49</ele>
        <time>2022-05-19T13:51:33Z</time>
      </trkpt>
      <trkpt lat="44.4809" lon="5.60452">
        <ele>1307.53</ele>
        <time>2022-05-19T13:51:41Z</time>
      </trkpt>
      <trkpt lat="44.48101" lon="5.60439">
        <ele>1305.13</ele>
        <time>2022-05-19T13:51:52Z</time>
      </trkpt>
      <trkpt lat="44.48119" lon="5.60427">
        <ele>1306.09</ele>
        <time>2022-05-19T13:52:10Z</time>
      </trkpt>
      <trkpt lat="44.4812" lon="5.60427">
        <ele>1306.09</ele>
        <time>2022-05-19T13:52:11Z</time>
      </trkpt>
      <trkpt lat="44.48122" lon="5.60425">
        <ele>1306.09</ele>
        <time>2022-05-19T13:52:14Z</time>
      </trkpt>
      <trkpt lat="44.48131" lon="5.60428">
        <ele>1307.53</ele>
        <time>2022-05-19T13:52:24Z</time>
      </trkpt>
      <trkpt lat="44.48146" lon="5.60436">
        <ele>1308.49</ele>
        <time>2022-05-19T13:52:39Z</time>
      </trkpt>
      <trkpt lat="44.48161" lon="5.60444">
        <ele>1309.45</ele>
        <time>2022-05-19T13:52:53Z</time>
      </trkpt>
      <trkpt lat="44.48181" lon="5.60454">
        <ele>1309.45</ele>
        <time>2022-05-19T13:53:08Z</time>
      </trkpt>
      <trkpt lat="44.48199" lon="5.60462">
        <ele>1309.93</ele>
        <time>2022-05-19T13:53:23Z</time>
      </trkpt>
      <trkpt lat="44.48209" lon="5.60454">
        <ele>1312.82</ele>
        <time>2022-05-19T13:53:36Z</time>
      </trkpt>
      <trkpt lat="44.48214" lon="5.60451">
        <ele>1313.3</ele>
        <time>2022-05-19T13:53:42Z</time>
      </trkpt>
      <trkpt lat="44.48229" lon="5.60449">
        <ele>1313.3</ele>
        <time>2022-05-19T13:53:57Z</time>
      </trkpt>
      <trkpt lat="44.48236" lon="5.60449">
        <ele>1313.3</ele>
        <time>2022-05-19T13:54:13Z</time>
      </trkpt>
    </trkseg>
  </trk>
</gpx>